<?xml version="1.0" encoding="UTF-8" standalone="no" ?>
<gpx xmlns="http://www.topografix.com/GPX/1/1" xmlns:xsi="http://www.w3.org/2001/XMLSchema-instance" xsi:schemaLocation="http://www.topografix.com/GPX/1/1 http://www.topografix.com/GPX/1/1/gpx.xsd" version="1.1" creator="VisuGPX - https://www.visugpx.com">
  <metadata>
    <name>Pic du Jer 951m</name>
    <desc><![CDATA[Sommet incontournable de Lourdes, magnifique belvèdère, et ascension facile par un vieux chemin puis des piste forestière ou carrossable.
A recommander. Inoubliable.

[url=http://eal-rando.blogspot.fr/2013/11/pic-du-jer-951m.html]voir rando[/url] ]]></desc>
  </metadata>
  <trk>
    <name><![CDATA[PIC DU JER :10:29 PM]]></name>
    <trkseg>
      <trkpt lat="43.08427" lon="-0.04526">
        <ele>400.06</ele>
        <time>2013-11-09T11:12:47Z</time>
      </trkpt>
      <trkpt lat="43.08427" lon="-0.04526">
        <ele>400.65</ele>
        <time>2013-11-09T11:12:49Z</time>
      </trkpt>
      <trkpt lat="43.08425" lon="-0.04528">
        <ele>400.13</ele>
        <time>2013-11-09T11:13:10Z</time>
      </trkpt>
      <trkpt lat="43.08428" lon="-0.04534">
        <ele>400.98</ele>
        <time>2013-11-09T11:13:20Z</time>
      </trkpt>
      <trkpt lat="43.08428" lon="-0.04534">
        <ele>400.31</ele>
        <time>2013-11-09T11:13:22Z</time>
      </trkpt>
      <trkpt lat="43.08428" lon="-0.04534">
        <ele>400.67</ele>
        <time>2013-11-09T11:13:24Z</time>
      </trkpt>
      <trkpt lat="43.08427" lon="-0.04534">
        <ele>400.04</ele>
        <time>2013-11-09T11:13:26Z</time>
      </trkpt>
      <trkpt lat="43.08425" lon="-0.04534">
        <ele>400.92</ele>
        <time>2013-11-09T11:13:28Z</time>
      </trkpt>
      <trkpt lat="43.08422" lon="-0.04534">
        <ele>400.17</ele>
        <time>2013-11-09T11:13:32Z</time>
      </trkpt>
      <trkpt lat="43.08419" lon="-0.04534">
        <ele>400.53</ele>
        <time>2013-11-09T11:13:35Z</time>
      </trkpt>
      <trkpt lat="43.08419" lon="-0.04534">
        <ele>400.38</ele>
        <time>2013-11-09T11:13:37Z</time>
      </trkpt>
      <trkpt lat="43.08419" lon="-0.04532">
        <ele>400.74</ele>
        <time>2013-11-09T11:13:40Z</time>
      </trkpt>
      <trkpt lat="43.0842" lon="-0.04529">
        <ele>400.63</ele>
        <time>2013-11-09T11:13:43Z</time>
      </trkpt>
      <trkpt lat="43.08419" lon="-0.04527">
        <ele>400.99</ele>
        <time>2013-11-09T11:13:46Z</time>
      </trkpt>
      <trkpt lat="43.08418" lon="-0.04524">
        <ele>400.43</ele>
        <time>2013-11-09T11:13:49Z</time>
      </trkpt>
      <trkpt lat="43.08417" lon="-0.04522">
        <ele>400.36</ele>
        <time>2013-11-09T11:13:51Z</time>
      </trkpt>
      <trkpt lat="43.08416" lon="-0.04519">
        <ele>400.24</ele>
        <time>2013-11-09T11:13:55Z</time>
      </trkpt>
      <trkpt lat="43.08414" lon="-0.04515">
        <ele>400.12</ele>
        <time>2013-11-09T11:14:01Z</time>
      </trkpt>
      <trkpt lat="43.08414" lon="-0.04511">
        <ele>401.01</ele>
        <time>2013-11-09T11:14:06Z</time>
      </trkpt>
      <trkpt lat="43.08414" lon="-0.04509">
        <ele>402.45</ele>
        <time>2013-11-09T11:14:10Z</time>
      </trkpt>
      <trkpt lat="43.08412" lon="-0.04504">
        <ele>404.37</ele>
        <time>2013-11-09T11:14:15Z</time>
      </trkpt>
      <trkpt lat="43.08407" lon="-0.04501">
        <ele>406.77</ele>
        <time>2013-11-09T11:14:26Z</time>
      </trkpt>
      <trkpt lat="43.08406" lon="-0.04497">
        <ele>407.74</ele>
        <time>2013-11-09T11:14:40Z</time>
      </trkpt>
      <trkpt lat="43.08403" lon="-0.04493">
        <ele>407.74</ele>
        <time>2013-11-09T11:14:54Z</time>
      </trkpt>
      <trkpt lat="43.08391" lon="-0.04485">
        <ele>407.74</ele>
        <time>2013-11-09T11:15:09Z</time>
      </trkpt>
      <trkpt lat="43.08389" lon="-0.04489">
        <ele>407.74</ele>
        <time>2013-11-09T11:15:26Z</time>
      </trkpt>
      <trkpt lat="43.08388" lon="-0.04484">
        <ele>407.74</ele>
        <time>2013-11-09T11:15:38Z</time>
      </trkpt>
      <trkpt lat="43.08388" lon="-0.04484">
        <ele>408.7</ele>
        <time>2013-11-09T11:15:48Z</time>
      </trkpt>
      <trkpt lat="43.08388" lon="-0.04479">
        <ele>407.74</ele>
        <time>2013-11-09T11:15:52Z</time>
      </trkpt>
      <trkpt lat="43.08389" lon="-0.0446">
        <ele>407.26</ele>
        <time>2013-11-09T11:16:07Z</time>
      </trkpt>
      <trkpt lat="43.08389" lon="-0.04454">
        <ele>407.26</ele>
        <time>2013-11-09T11:16:11Z</time>
      </trkpt>
      <trkpt lat="43.08389" lon="-0.04436">
        <ele>407.74</ele>
        <time>2013-11-09T11:16:24Z</time>
      </trkpt>
      <trkpt lat="43.08388" lon="-0.04432">
        <ele>408.22</ele>
        <time>2013-11-09T11:16:27Z</time>
      </trkpt>
      <trkpt lat="43.08385" lon="-0.04428">
        <ele>408.22</ele>
        <time>2013-11-09T11:16:31Z</time>
      </trkpt>
      <trkpt lat="43.08381" lon="-0.04421">
        <ele>408.22</ele>
        <time>2013-11-09T11:16:41Z</time>
      </trkpt>
      <trkpt lat="43.08376" lon="-0.04409">
        <ele>409.66</ele>
        <time>2013-11-09T11:16:50Z</time>
      </trkpt>
      <trkpt lat="43.08373" lon="-0.04402">
        <ele>410.14</ele>
        <time>2013-11-09T11:17:02Z</time>
      </trkpt>
      <trkpt lat="43.08372" lon="-0.04397">
        <ele>411.1</ele>
        <time>2013-11-09T11:17:14Z</time>
      </trkpt>
      <trkpt lat="43.08372" lon="-0.04383">
        <ele>413.02</ele>
        <time>2013-11-09T11:17:25Z</time>
      </trkpt>
      <trkpt lat="43.08369" lon="-0.04363">
        <ele>414.95</ele>
        <time>2013-11-09T11:17:38Z</time>
      </trkpt>
      <trkpt lat="43.08367" lon="-0.04346">
        <ele>416.87</ele>
        <time>2013-11-09T11:17:50Z</time>
      </trkpt>
      <trkpt lat="43.08367" lon="-0.04344">
        <ele>415.91</ele>
        <time>2013-11-09T11:17:51Z</time>
      </trkpt>
      <trkpt lat="43.08363" lon="-0.04328">
        <ele>417.83</ele>
        <time>2013-11-09T11:18:05Z</time>
      </trkpt>
      <trkpt lat="43.08361" lon="-0.04325">
        <ele>417.83</ele>
        <time>2013-11-09T11:18:07Z</time>
      </trkpt>
      <trkpt lat="43.08358" lon="-0.04309">
        <ele>419.75</ele>
        <time>2013-11-09T11:18:19Z</time>
      </trkpt>
      <trkpt lat="43.08356" lon="-0.04297">
        <ele>420.71</ele>
        <time>2013-11-09T11:18:28Z</time>
      </trkpt>
      <trkpt lat="43.08356" lon="-0.04277">
        <ele>420.71</ele>
        <time>2013-11-09T11:18:40Z</time>
      </trkpt>
      <trkpt lat="43.08357" lon="-0.0426">
        <ele>421.68</ele>
        <time>2013-11-09T11:18:52Z</time>
      </trkpt>
      <trkpt lat="43.08355" lon="-0.04251">
        <ele>422.64</ele>
        <time>2013-11-09T11:19:00Z</time>
      </trkpt>
      <trkpt lat="43.08353" lon="-0.04239">
        <ele>423.12</ele>
        <time>2013-11-09T11:19:13Z</time>
      </trkpt>
      <trkpt lat="43.08352" lon="-0.04221">
        <ele>423.6</ele>
        <time>2013-11-09T11:19:25Z</time>
      </trkpt>
      <trkpt lat="43.08354" lon="-0.042">
        <ele>424.56</ele>
        <time>2013-11-09T11:19:37Z</time>
      </trkpt>
      <trkpt lat="43.08354" lon="-0.0419">
        <ele>426</ele>
        <time>2013-11-09T11:19:49Z</time>
      </trkpt>
      <trkpt lat="43.08356" lon="-0.04172">
        <ele>426.48</ele>
        <time>2013-11-09T11:20:02Z</time>
      </trkpt>
      <trkpt lat="43.08369" lon="-0.04152">
        <ele>427.92</ele>
        <time>2013-11-09T11:20:18Z</time>
      </trkpt>
      <trkpt lat="43.08372" lon="-0.0415">
        <ele>428.4</ele>
        <time>2013-11-09T11:20:32Z</time>
      </trkpt>
      <trkpt lat="43.08375" lon="-0.04149">
        <ele>429.85</ele>
        <time>2013-11-09T11:20:46Z</time>
      </trkpt>
      <trkpt lat="43.08375" lon="-0.04149">
        <ele>431.29</ele>
        <time>2013-11-09T11:20:51Z</time>
      </trkpt>
      <trkpt lat="43.08394" lon="-0.04141">
        <ele>432.25</ele>
        <time>2013-11-09T11:21:05Z</time>
      </trkpt>
      <trkpt lat="43.08394" lon="-0.04141">
        <ele>434.65</ele>
        <time>2013-11-09T11:21:20Z</time>
      </trkpt>
      <trkpt lat="43.08394" lon="-0.04141">
        <ele>437.06</ele>
        <time>2013-11-09T11:21:36Z</time>
      </trkpt>
      <trkpt lat="43.08398" lon="-0.0414">
        <ele>438.02</ele>
        <time>2013-11-09T11:21:45Z</time>
      </trkpt>
      <trkpt lat="43.08412" lon="-0.04133">
        <ele>439.46</ele>
        <time>2013-11-09T11:22:02Z</time>
      </trkpt>
      <trkpt lat="43.08414" lon="-0.04131">
        <ele>441.38</ele>
        <time>2013-11-09T11:22:18Z</time>
      </trkpt>
      <trkpt lat="43.08414" lon="-0.04131">
        <ele>443.31</ele>
        <time>2013-11-09T11:22:32Z</time>
      </trkpt>
      <trkpt lat="43.08417" lon="-0.0413">
        <ele>445.23</ele>
        <time>2013-11-09T11:22:48Z</time>
      </trkpt>
      <trkpt lat="43.08417" lon="-0.0413">
        <ele>448.59</ele>
        <time>2013-11-09T11:23:06Z</time>
      </trkpt>
      <trkpt lat="43.08417" lon="-0.0413">
        <ele>449.55</ele>
        <time>2013-11-09T11:23:21Z</time>
      </trkpt>
      <trkpt lat="43.08434" lon="-0.0412">
        <ele>451.48</ele>
        <time>2013-11-09T11:23:35Z</time>
      </trkpt>
      <trkpt lat="43.08472" lon="-0.04093">
        <ele>453.4</ele>
        <time>2013-11-09T11:23:51Z</time>
      </trkpt>
      <trkpt lat="43.0849" lon="-0.04073">
        <ele>454.84</ele>
        <time>2013-11-09T11:24:05Z</time>
      </trkpt>
      <trkpt lat="43.08499" lon="-0.04063">
        <ele>457.24</ele>
        <time>2013-11-09T11:24:20Z</time>
      </trkpt>
      <trkpt lat="43.08502" lon="-0.04061">
        <ele>458.69</ele>
        <time>2013-11-09T11:24:33Z</time>
      </trkpt>
      <trkpt lat="43.08502" lon="-0.04061">
        <ele>461.57</ele>
        <time>2013-11-09T11:24:51Z</time>
      </trkpt>
      <trkpt lat="43.08504" lon="-0.04059">
        <ele>462.53</ele>
        <time>2013-11-09T11:25:08Z</time>
      </trkpt>
      <trkpt lat="43.08504" lon="-0.04059">
        <ele>463.49</ele>
        <time>2013-11-09T11:25:23Z</time>
      </trkpt>
      <trkpt lat="43.08506" lon="-0.04056">
        <ele>464.93</ele>
        <time>2013-11-09T11:25:48Z</time>
      </trkpt>
      <trkpt lat="43.08506" lon="-0.04056">
        <ele>466.86</ele>
        <time>2013-11-09T11:26:05Z</time>
      </trkpt>
      <trkpt lat="43.08507" lon="-0.04053">
        <ele>468.78</ele>
        <time>2013-11-09T11:26:22Z</time>
      </trkpt>
      <trkpt lat="43.08507" lon="-0.04053">
        <ele>470.22</ele>
        <time>2013-11-09T11:26:38Z</time>
      </trkpt>
      <trkpt lat="43.08509" lon="-0.0405">
        <ele>471.66</ele>
        <time>2013-11-09T11:26:51Z</time>
      </trkpt>
      <trkpt lat="43.08509" lon="-0.0405">
        <ele>474.55</ele>
        <time>2013-11-09T11:27:06Z</time>
      </trkpt>
      <trkpt lat="43.08514" lon="-0.0404">
        <ele>475.51</ele>
        <time>2013-11-09T11:27:17Z</time>
      </trkpt>
      <trkpt lat="43.08526" lon="-0.04027">
        <ele>477.43</ele>
        <time>2013-11-09T11:27:29Z</time>
      </trkpt>
      <trkpt lat="43.08534" lon="-0.0402">
        <ele>478.87</ele>
        <time>2013-11-09T11:27:42Z</time>
      </trkpt>
      <trkpt lat="43.08544" lon="-0.04011">
        <ele>479.84</ele>
        <time>2013-11-09T11:27:57Z</time>
      </trkpt>
      <trkpt lat="43.08558" lon="-0.03971">
        <ele>481.28</ele>
        <time>2013-11-09T11:28:10Z</time>
      </trkpt>
      <trkpt lat="43.08568" lon="-0.03955">
        <ele>483.2</ele>
        <time>2013-11-09T11:28:26Z</time>
      </trkpt>
      <trkpt lat="43.08558" lon="-0.03938">
        <ele>484.64</ele>
        <time>2013-11-09T11:28:40Z</time>
      </trkpt>
      <trkpt lat="43.08558" lon="-0.03938">
        <ele>486.56</ele>
        <time>2013-11-09T11:28:55Z</time>
      </trkpt>
      <trkpt lat="43.08558" lon="-0.03938">
        <ele>489.45</ele>
        <time>2013-11-09T11:29:14Z</time>
      </trkpt>
      <trkpt lat="43.08556" lon="-0.03937">
        <ele>491.37</ele>
        <time>2013-11-09T11:29:27Z</time>
      </trkpt>
      <trkpt lat="43.08556" lon="-0.03937">
        <ele>492.33</ele>
        <time>2013-11-09T11:29:40Z</time>
      </trkpt>
      <trkpt lat="43.08556" lon="-0.03937">
        <ele>495.22</ele>
        <time>2013-11-09T11:29:55Z</time>
      </trkpt>
      <trkpt lat="43.08554" lon="-0.03936">
        <ele>497.14</ele>
        <time>2013-11-09T11:30:09Z</time>
      </trkpt>
      <trkpt lat="43.08554" lon="-0.03936">
        <ele>499.06</ele>
        <time>2013-11-09T11:30:22Z</time>
      </trkpt>
      <trkpt lat="43.08549" lon="-0.03934">
        <ele>500.5</ele>
        <time>2013-11-09T11:30:39Z</time>
      </trkpt>
      <trkpt lat="43.08549" lon="-0.03934">
        <ele>502.91</ele>
        <time>2013-11-09T11:30:53Z</time>
      </trkpt>
      <trkpt lat="43.08521" lon="-0.03924">
        <ele>503.87</ele>
        <time>2013-11-09T11:31:05Z</time>
      </trkpt>
      <trkpt lat="43.08499" lon="-0.03912">
        <ele>506.27</ele>
        <time>2013-11-09T11:31:21Z</time>
      </trkpt>
      <trkpt lat="43.08499" lon="-0.03912">
        <ele>507.23</ele>
        <time>2013-11-09T11:31:31Z</time>
      </trkpt>
      <trkpt lat="43.0848" lon="-0.03921">
        <ele>509.16</ele>
        <time>2013-11-09T11:31:47Z</time>
      </trkpt>
      <trkpt lat="43.08472" lon="-0.0392">
        <ele>511.56</ele>
        <time>2013-11-09T11:32:03Z</time>
      </trkpt>
      <trkpt lat="43.08468" lon="-0.03921">
        <ele>513</ele>
        <time>2013-11-09T11:32:15Z</time>
      </trkpt>
      <trkpt lat="43.08468" lon="-0.03921">
        <ele>514.44</ele>
        <time>2013-11-09T11:32:27Z</time>
      </trkpt>
      <trkpt lat="43.08468" lon="-0.03921">
        <ele>516.85</ele>
        <time>2013-11-09T11:32:42Z</time>
      </trkpt>
      <trkpt lat="43.08466" lon="-0.03921">
        <ele>518.77</ele>
        <time>2013-11-09T11:32:57Z</time>
      </trkpt>
      <trkpt lat="43.08466" lon="-0.03921">
        <ele>520.21</ele>
        <time>2013-11-09T11:33:12Z</time>
      </trkpt>
      <trkpt lat="43.08462" lon="-0.03921">
        <ele>522.13</ele>
        <time>2013-11-09T11:33:27Z</time>
      </trkpt>
      <trkpt lat="43.08462" lon="-0.03921">
        <ele>523.58</ele>
        <time>2013-11-09T11:33:42Z</time>
      </trkpt>
      <trkpt lat="43.08462" lon="-0.03921">
        <ele>525.02</ele>
        <time>2013-11-09T11:33:55Z</time>
      </trkpt>
      <trkpt lat="43.08458" lon="-0.03922">
        <ele>526.94</ele>
        <time>2013-11-09T11:34:09Z</time>
      </trkpt>
      <trkpt lat="43.08436" lon="-0.03924">
        <ele>527.9</ele>
        <time>2013-11-09T11:34:21Z</time>
      </trkpt>
      <trkpt lat="43.08436" lon="-0.03924">
        <ele>529.82</ele>
        <time>2013-11-09T11:34:37Z</time>
      </trkpt>
      <trkpt lat="43.08436" lon="-0.03924">
        <ele>531.75</ele>
        <time>2013-11-09T11:34:50Z</time>
      </trkpt>
      <trkpt lat="43.08431" lon="-0.03924">
        <ele>533.19</ele>
        <time>2013-11-09T11:35:04Z</time>
      </trkpt>
      <trkpt lat="43.08408" lon="-0.03922">
        <ele>535.11</ele>
        <time>2013-11-09T11:35:20Z</time>
      </trkpt>
      <trkpt lat="43.08408" lon="-0.03922">
        <ele>535.59</ele>
        <time>2013-11-09T11:35:34Z</time>
      </trkpt>
      <trkpt lat="43.08373" lon="-0.0392">
        <ele>536.55</ele>
        <time>2013-11-09T11:35:49Z</time>
      </trkpt>
      <trkpt lat="43.08373" lon="-0.0392">
        <ele>538.96</ele>
        <time>2013-11-09T11:36:06Z</time>
      </trkpt>
      <trkpt lat="43.08373" lon="-0.0392">
        <ele>541.36</ele>
        <time>2013-11-09T11:36:22Z</time>
      </trkpt>
      <trkpt lat="43.08372" lon="-0.03919">
        <ele>542.8</ele>
        <time>2013-11-09T11:36:33Z</time>
      </trkpt>
      <trkpt lat="43.08372" lon="-0.03919">
        <ele>544.72</ele>
        <time>2013-11-09T11:36:45Z</time>
      </trkpt>
      <trkpt lat="43.08363" lon="-0.03916">
        <ele>545.2</ele>
        <time>2013-11-09T11:37:02Z</time>
      </trkpt>
      <trkpt lat="43.08356" lon="-0.03916">
        <ele>545.2</ele>
        <time>2013-11-09T11:37:17Z</time>
      </trkpt>
      <trkpt lat="43.08351" lon="-0.03906">
        <ele>546.17</ele>
        <time>2013-11-09T11:37:31Z</time>
      </trkpt>
      <trkpt lat="43.08349" lon="-0.03892">
        <ele>547.13</ele>
        <time>2013-11-09T11:37:42Z</time>
      </trkpt>
      <trkpt lat="43.08348" lon="-0.03883">
        <ele>548.57</ele>
        <time>2013-11-09T11:37:57Z</time>
      </trkpt>
      <trkpt lat="43.0835" lon="-0.03876">
        <ele>550.01</ele>
        <time>2013-11-09T11:38:11Z</time>
      </trkpt>
      <trkpt lat="43.0835" lon="-0.03875">
        <ele>550.97</ele>
        <time>2013-11-09T11:38:26Z</time>
      </trkpt>
      <trkpt lat="43.0835" lon="-0.03875">
        <ele>552.9</ele>
        <time>2013-11-09T11:38:41Z</time>
      </trkpt>
      <trkpt lat="43.08353" lon="-0.03869">
        <ele>553.86</ele>
        <time>2013-11-09T11:38:57Z</time>
      </trkpt>
      <trkpt lat="43.08356" lon="-0.03862">
        <ele>555.3</ele>
        <time>2013-11-09T11:39:12Z</time>
      </trkpt>
      <trkpt lat="43.08366" lon="-0.03849">
        <ele>556.26</ele>
        <time>2013-11-09T11:39:24Z</time>
      </trkpt>
      <trkpt lat="43.0837" lon="-0.03843">
        <ele>557.7</ele>
        <time>2013-11-09T11:39:39Z</time>
      </trkpt>
      <trkpt lat="43.08382" lon="-0.03831">
        <ele>559.62</ele>
        <time>2013-11-09T11:39:55Z</time>
      </trkpt>
      <trkpt lat="43.08393" lon="-0.03811">
        <ele>561.55</ele>
        <time>2013-11-09T11:40:09Z</time>
      </trkpt>
      <trkpt lat="43.08398" lon="-0.03808">
        <ele>561.55</ele>
        <time>2013-11-09T11:40:23Z</time>
      </trkpt>
      <trkpt lat="43.0841" lon="-0.03796">
        <ele>562.51</ele>
        <time>2013-11-09T11:40:35Z</time>
      </trkpt>
      <trkpt lat="43.08413" lon="-0.03791">
        <ele>563.95</ele>
        <time>2013-11-09T11:40:46Z</time>
      </trkpt>
      <trkpt lat="43.08416" lon="-0.03789">
        <ele>564.91</ele>
        <time>2013-11-09T11:40:56Z</time>
      </trkpt>
      <trkpt lat="43.08416" lon="-0.03789">
        <ele>566.83</ele>
        <time>2013-11-09T11:41:09Z</time>
      </trkpt>
      <trkpt lat="43.08428" lon="-0.03772">
        <ele>568.76</ele>
        <time>2013-11-09T11:41:23Z</time>
      </trkpt>
      <trkpt lat="43.0844" lon="-0.03755">
        <ele>569.72</ele>
        <time>2013-11-09T11:41:34Z</time>
      </trkpt>
      <trkpt lat="43.08447" lon="-0.03737">
        <ele>571.64</ele>
        <time>2013-11-09T11:41:48Z</time>
      </trkpt>
      <trkpt lat="43.08449" lon="-0.03725">
        <ele>573.08</ele>
        <time>2013-11-09T11:42:00Z</time>
      </trkpt>
      <trkpt lat="43.0845" lon="-0.03721">
        <ele>574.04</ele>
        <time>2013-11-09T11:42:13Z</time>
      </trkpt>
      <trkpt lat="43.08452" lon="-0.0371">
        <ele>575.01</ele>
        <time>2013-11-09T11:42:28Z</time>
      </trkpt>
      <trkpt lat="43.08456" lon="-0.03697">
        <ele>576.45</ele>
        <time>2013-11-09T11:42:39Z</time>
      </trkpt>
      <trkpt lat="43.08461" lon="-0.0368">
        <ele>577.89</ele>
        <time>2013-11-09T11:42:54Z</time>
      </trkpt>
      <trkpt lat="43.08463" lon="-0.03673">
        <ele>579.81</ele>
        <time>2013-11-09T11:43:09Z</time>
      </trkpt>
      <trkpt lat="43.08467" lon="-0.03667">
        <ele>580.77</ele>
        <time>2013-11-09T11:43:20Z</time>
      </trkpt>
      <trkpt lat="43.08478" lon="-0.03653">
        <ele>581.73</ele>
        <time>2013-11-09T11:43:36Z</time>
      </trkpt>
      <trkpt lat="43.08484" lon="-0.03644">
        <ele>582.7</ele>
        <time>2013-11-09T11:43:50Z</time>
      </trkpt>
      <trkpt lat="43.08489" lon="-0.03641">
        <ele>584.62</ele>
        <time>2013-11-09T11:44:01Z</time>
      </trkpt>
      <trkpt lat="43.085" lon="-0.03623">
        <ele>585.1</ele>
        <time>2013-11-09T11:44:14Z</time>
      </trkpt>
      <trkpt lat="43.0851" lon="-0.03615">
        <ele>586.06</ele>
        <time>2013-11-09T11:44:25Z</time>
      </trkpt>
      <trkpt lat="43.08515" lon="-0.03608">
        <ele>587.5</ele>
        <time>2013-11-09T11:44:41Z</time>
      </trkpt>
      <trkpt lat="43.08515" lon="-0.03608">
        <ele>589.43</ele>
        <time>2013-11-09T11:44:55Z</time>
      </trkpt>
      <trkpt lat="43.08515" lon="-0.03608">
        <ele>589.91</ele>
        <time>2013-11-09T11:45:11Z</time>
      </trkpt>
      <trkpt lat="43.08522" lon="-0.03603">
        <ele>591.83</ele>
        <time>2013-11-09T11:45:27Z</time>
      </trkpt>
      <trkpt lat="43.08538" lon="-0.03593">
        <ele>592.79</ele>
        <time>2013-11-09T11:45:40Z</time>
      </trkpt>
      <trkpt lat="43.08551" lon="-0.03585">
        <ele>594.23</ele>
        <time>2013-11-09T11:45:52Z</time>
      </trkpt>
      <trkpt lat="43.08568" lon="-0.03568">
        <ele>595.19</ele>
        <time>2013-11-09T11:46:06Z</time>
      </trkpt>
      <trkpt lat="43.08586" lon="-0.03549">
        <ele>596.15</ele>
        <time>2013-11-09T11:46:21Z</time>
      </trkpt>
      <trkpt lat="43.08596" lon="-0.03541">
        <ele>597.6</ele>
        <time>2013-11-09T11:46:36Z</time>
      </trkpt>
      <trkpt lat="43.08601" lon="-0.03539">
        <ele>597.6</ele>
        <time>2013-11-09T11:46:40Z</time>
      </trkpt>
      <trkpt lat="43.08615" lon="-0.03534">
        <ele>599.04</ele>
        <time>2013-11-09T11:46:53Z</time>
      </trkpt>
      <trkpt lat="43.08627" lon="-0.0353">
        <ele>600</ele>
        <time>2013-11-09T11:47:04Z</time>
      </trkpt>
      <trkpt lat="43.08636" lon="-0.03525">
        <ele>601.44</ele>
        <time>2013-11-09T11:47:18Z</time>
      </trkpt>
      <trkpt lat="43.08647" lon="-0.03523">
        <ele>603.36</ele>
        <time>2013-11-09T11:47:33Z</time>
      </trkpt>
      <trkpt lat="43.08659" lon="-0.03523">
        <ele>605.29</ele>
        <time>2013-11-09T11:47:46Z</time>
      </trkpt>
      <trkpt lat="43.08669" lon="-0.03517">
        <ele>607.21</ele>
        <time>2013-11-09T11:48:02Z</time>
      </trkpt>
      <trkpt lat="43.08685" lon="-0.03507">
        <ele>608.17</ele>
        <time>2013-11-09T11:48:15Z</time>
      </trkpt>
      <trkpt lat="43.08695" lon="-0.03503">
        <ele>610.09</ele>
        <time>2013-11-09T11:48:28Z</time>
      </trkpt>
      <trkpt lat="43.087" lon="-0.035">
        <ele>611.54</ele>
        <time>2013-11-09T11:48:41Z</time>
      </trkpt>
      <trkpt lat="43.0871" lon="-0.03495">
        <ele>612.98</ele>
        <time>2013-11-09T11:48:54Z</time>
      </trkpt>
      <trkpt lat="43.08722" lon="-0.03494">
        <ele>614.42</ele>
        <time>2013-11-09T11:49:08Z</time>
      </trkpt>
      <trkpt lat="43.08731" lon="-0.03493">
        <ele>615.86</ele>
        <time>2013-11-09T11:49:23Z</time>
      </trkpt>
      <trkpt lat="43.08742" lon="-0.0349">
        <ele>617.3</ele>
        <time>2013-11-09T11:49:35Z</time>
      </trkpt>
      <trkpt lat="43.08756" lon="-0.03483">
        <ele>618.75</ele>
        <time>2013-11-09T11:49:47Z</time>
      </trkpt>
      <trkpt lat="43.08768" lon="-0.03471">
        <ele>619.71</ele>
        <time>2013-11-09T11:50:00Z</time>
      </trkpt>
      <trkpt lat="43.08771" lon="-0.0346">
        <ele>621.15</ele>
        <time>2013-11-09T11:50:11Z</time>
      </trkpt>
      <trkpt lat="43.08771" lon="-0.03456">
        <ele>621.63</ele>
        <time>2013-11-09T11:50:14Z</time>
      </trkpt>
      <trkpt lat="43.08776" lon="-0.03441">
        <ele>623.55</ele>
        <time>2013-11-09T11:50:28Z</time>
      </trkpt>
      <trkpt lat="43.08782" lon="-0.03435">
        <ele>624.51</ele>
        <time>2013-11-09T11:50:39Z</time>
      </trkpt>
      <trkpt lat="43.08788" lon="-0.03429">
        <ele>625.96</ele>
        <time>2013-11-09T11:50:52Z</time>
      </trkpt>
      <trkpt lat="43.08796" lon="-0.03418">
        <ele>627.4</ele>
        <time>2013-11-09T11:51:07Z</time>
      </trkpt>
      <trkpt lat="43.08796" lon="-0.03399">
        <ele>628.84</ele>
        <time>2013-11-09T11:51:21Z</time>
      </trkpt>
      <trkpt lat="43.08795" lon="-0.03385">
        <ele>630.76</ele>
        <time>2013-11-09T11:51:35Z</time>
      </trkpt>
      <trkpt lat="43.0879" lon="-0.03371">
        <ele>633.17</ele>
        <time>2013-11-09T11:51:50Z</time>
      </trkpt>
      <trkpt lat="43.08781" lon="-0.03347">
        <ele>635.57</ele>
        <time>2013-11-09T11:52:11Z</time>
      </trkpt>
      <trkpt lat="43.08788" lon="-0.03333">
        <ele>637.97</ele>
        <time>2013-11-09T11:52:29Z</time>
      </trkpt>
      <trkpt lat="43.08801" lon="-0.03325">
        <ele>639.41</ele>
        <time>2013-11-09T11:52:50Z</time>
      </trkpt>
      <trkpt lat="43.08811" lon="-0.03321">
        <ele>640.38</ele>
        <time>2013-11-09T11:53:05Z</time>
      </trkpt>
      <trkpt lat="43.08818" lon="-0.03318">
        <ele>642.3</ele>
        <time>2013-11-09T11:53:19Z</time>
      </trkpt>
      <trkpt lat="43.0882" lon="-0.03317">
        <ele>642.78</ele>
        <time>2013-11-09T11:53:30Z</time>
      </trkpt>
      <trkpt lat="43.08828" lon="-0.03318">
        <ele>642.78</ele>
        <time>2013-11-09T11:53:51Z</time>
      </trkpt>
      <trkpt lat="43.08835" lon="-0.03324">
        <ele>642.3</ele>
        <time>2013-11-09T11:53:57Z</time>
      </trkpt>
      <trkpt lat="43.08844" lon="-0.03328">
        <ele>644.7</ele>
        <time>2013-11-09T11:54:10Z</time>
      </trkpt>
      <trkpt lat="43.08847" lon="-0.03337">
        <ele>646.62</ele>
        <time>2013-11-09T11:54:25Z</time>
      </trkpt>
      <trkpt lat="43.08847" lon="-0.03337">
        <ele>646.14</ele>
        <time>2013-11-09T11:54:46Z</time>
      </trkpt>
      <trkpt lat="43.08847" lon="-0.03338">
        <ele>646.14</ele>
        <time>2013-11-09T11:55:10Z</time>
      </trkpt>
      <trkpt lat="43.08847" lon="-0.03338">
        <ele>646.62</ele>
        <time>2013-11-09T11:55:47Z</time>
      </trkpt>
      <trkpt lat="43.08847" lon="-0.03338">
        <ele>647.59</ele>
        <time>2013-11-09T11:56:26Z</time>
      </trkpt>
      <trkpt lat="43.08846" lon="-0.03333">
        <ele>647.59</ele>
        <time>2013-11-09T11:56:40Z</time>
      </trkpt>
      <trkpt lat="43.08841" lon="-0.03327">
        <ele>646.62</ele>
        <time>2013-11-09T11:56:52Z</time>
      </trkpt>
      <trkpt lat="43.08834" lon="-0.03321">
        <ele>645.18</ele>
        <time>2013-11-09T11:57:00Z</time>
      </trkpt>
      <trkpt lat="43.08832" lon="-0.03312">
        <ele>645.18</ele>
        <time>2013-11-09T11:57:07Z</time>
      </trkpt>
      <trkpt lat="43.08829" lon="-0.03309">
        <ele>644.7</ele>
        <time>2013-11-09T11:57:11Z</time>
      </trkpt>
      <trkpt lat="43.08823" lon="-0.03305">
        <ele>646.14</ele>
        <time>2013-11-09T11:57:19Z</time>
      </trkpt>
      <trkpt lat="43.08815" lon="-0.03299">
        <ele>647.1</ele>
        <time>2013-11-09T11:57:31Z</time>
      </trkpt>
      <trkpt lat="43.08808" lon="-0.03295">
        <ele>649.03</ele>
        <time>2013-11-09T11:57:43Z</time>
      </trkpt>
      <trkpt lat="43.08803" lon="-0.03294">
        <ele>649.51</ele>
        <time>2013-11-09T11:57:53Z</time>
      </trkpt>
      <trkpt lat="43.08789" lon="-0.03285">
        <ele>651.91</ele>
        <time>2013-11-09T11:58:07Z</time>
      </trkpt>
      <trkpt lat="43.08777" lon="-0.0328">
        <ele>653.35</ele>
        <time>2013-11-09T11:58:20Z</time>
      </trkpt>
      <trkpt lat="43.08769" lon="-0.03278">
        <ele>655.28</ele>
        <time>2013-11-09T11:58:30Z</time>
      </trkpt>
      <trkpt lat="43.08754" lon="-0.03276">
        <ele>656.24</ele>
        <time>2013-11-09T11:58:45Z</time>
      </trkpt>
      <trkpt lat="43.08746" lon="-0.03278">
        <ele>657.68</ele>
        <time>2013-11-09T11:58:54Z</time>
      </trkpt>
      <trkpt lat="43.08731" lon="-0.03276">
        <ele>659.6</ele>
        <time>2013-11-09T11:59:09Z</time>
      </trkpt>
      <trkpt lat="43.08717" lon="-0.03281">
        <ele>661.52</ele>
        <time>2013-11-09T11:59:24Z</time>
      </trkpt>
      <trkpt lat="43.08711" lon="-0.03282">
        <ele>663.45</ele>
        <time>2013-11-09T11:59:37Z</time>
      </trkpt>
      <trkpt lat="43.08699" lon="-0.03286">
        <ele>664.89</ele>
        <time>2013-11-09T11:59:49Z</time>
      </trkpt>
      <trkpt lat="43.08696" lon="-0.03286">
        <ele>648.55</ele>
        <time>2013-11-09T11:59:52Z</time>
      </trkpt>
      <trkpt lat="43.08695" lon="-0.03286">
        <ele>663.45</ele>
        <time>2013-11-09T11:59:53Z</time>
      </trkpt>
      <trkpt lat="43.08694" lon="-0.03286">
        <ele>668.73</ele>
        <time>2013-11-09T11:59:54Z</time>
      </trkpt>
      <trkpt lat="43.08693" lon="-0.03287">
        <ele>665.85</ele>
        <time>2013-11-09T11:59:55Z</time>
      </trkpt>
      <trkpt lat="43.08688" lon="-0.03289">
        <ele>669.22</ele>
        <time>2013-11-09T12:00:01Z</time>
      </trkpt>
      <trkpt lat="43.08687" lon="-0.0329">
        <ele>662.01</ele>
        <time>2013-11-09T12:00:02Z</time>
      </trkpt>
      <trkpt lat="43.08687" lon="-0.0329">
        <ele>667.29</ele>
        <time>2013-11-09T12:00:03Z</time>
      </trkpt>
      <trkpt lat="43.08684" lon="-0.03291">
        <ele>667.77</ele>
        <time>2013-11-09T12:00:07Z</time>
      </trkpt>
      <trkpt lat="43.08672" lon="-0.0329">
        <ele>668.25</ele>
        <time>2013-11-09T12:00:20Z</time>
      </trkpt>
      <trkpt lat="43.0867" lon="-0.03285">
        <ele>669.7</ele>
        <time>2013-11-09T12:00:31Z</time>
      </trkpt>
      <trkpt lat="43.08673" lon="-0.0328">
        <ele>671.62</ele>
        <time>2013-11-09T12:00:42Z</time>
      </trkpt>
      <trkpt lat="43.08678" lon="-0.0327">
        <ele>672.58</ele>
        <time>2013-11-09T12:00:58Z</time>
      </trkpt>
      <trkpt lat="43.08678" lon="-0.0327">
        <ele>674.5</ele>
        <time>2013-11-09T12:01:11Z</time>
      </trkpt>
      <trkpt lat="43.08678" lon="-0.0327">
        <ele>675.46</ele>
        <time>2013-11-09T12:01:24Z</time>
      </trkpt>
      <trkpt lat="43.08678" lon="-0.03257">
        <ele>676.91</ele>
        <time>2013-11-09T12:01:37Z</time>
      </trkpt>
      <trkpt lat="43.08677" lon="-0.03233">
        <ele>678.83</ele>
        <time>2013-11-09T12:01:50Z</time>
      </trkpt>
      <trkpt lat="43.08676" lon="-0.03226">
        <ele>679.79</ele>
        <time>2013-11-09T12:02:03Z</time>
      </trkpt>
      <trkpt lat="43.08676" lon="-0.03226">
        <ele>680.75</ele>
        <time>2013-11-09T12:02:07Z</time>
      </trkpt>
      <trkpt lat="43.08671" lon="-0.03206">
        <ele>682.19</ele>
        <time>2013-11-09T12:02:21Z</time>
      </trkpt>
      <trkpt lat="43.08667" lon="-0.03187">
        <ele>683.63</ele>
        <time>2013-11-09T12:02:35Z</time>
      </trkpt>
      <trkpt lat="43.08666" lon="-0.03172">
        <ele>684.6</ele>
        <time>2013-11-09T12:02:48Z</time>
      </trkpt>
      <trkpt lat="43.08665" lon="-0.03161">
        <ele>685.08</ele>
        <time>2013-11-09T12:03:05Z</time>
      </trkpt>
      <trkpt lat="43.0866" lon="-0.03142">
        <ele>687</ele>
        <time>2013-11-09T12:03:18Z</time>
      </trkpt>
      <trkpt lat="43.08656" lon="-0.03126">
        <ele>687.96</ele>
        <time>2013-11-09T12:03:29Z</time>
      </trkpt>
      <trkpt lat="43.0865" lon="-0.0311">
        <ele>689.4</ele>
        <time>2013-11-09T12:03:43Z</time>
      </trkpt>
      <trkpt lat="43.08643" lon="-0.03104">
        <ele>691.33</ele>
        <time>2013-11-09T12:03:55Z</time>
      </trkpt>
      <trkpt lat="43.08642" lon="-0.03104">
        <ele>690.84</ele>
        <time>2013-11-09T12:03:58Z</time>
      </trkpt>
      <trkpt lat="43.08632" lon="-0.03099">
        <ele>692.77</ele>
        <time>2013-11-09T12:04:10Z</time>
      </trkpt>
      <trkpt lat="43.08625" lon="-0.0309">
        <ele>694.21</ele>
        <time>2013-11-09T12:04:20Z</time>
      </trkpt>
      <trkpt lat="43.08621" lon="-0.03085">
        <ele>694.69</ele>
        <time>2013-11-09T12:04:25Z</time>
      </trkpt>
      <trkpt lat="43.08614" lon="-0.03076">
        <ele>696.13</ele>
        <time>2013-11-09T12:04:36Z</time>
      </trkpt>
      <trkpt lat="43.08606" lon="-0.03064">
        <ele>697.57</ele>
        <time>2013-11-09T12:04:48Z</time>
      </trkpt>
      <trkpt lat="43.08602" lon="-0.0306">
        <ele>698.53</ele>
        <time>2013-11-09T12:04:55Z</time>
      </trkpt>
      <trkpt lat="43.08597" lon="-0.03055">
        <ele>699.5</ele>
        <time>2013-11-09T12:05:01Z</time>
      </trkpt>
      <trkpt lat="43.08591" lon="-0.03048">
        <ele>700.46</ele>
        <time>2013-11-09T12:05:14Z</time>
      </trkpt>
      <trkpt lat="43.08589" lon="-0.03045">
        <ele>700.46</ele>
        <time>2013-11-09T12:05:24Z</time>
      </trkpt>
      <trkpt lat="43.08582" lon="-0.03032">
        <ele>701.42</ele>
        <time>2013-11-09T12:05:35Z</time>
      </trkpt>
      <trkpt lat="43.08576" lon="-0.03021">
        <ele>701.9</ele>
        <time>2013-11-09T12:05:44Z</time>
      </trkpt>
      <trkpt lat="43.08566" lon="-0.02989">
        <ele>703.34</ele>
        <time>2013-11-09T12:05:59Z</time>
      </trkpt>
      <trkpt lat="43.0856" lon="-0.02973">
        <ele>703.82</ele>
        <time>2013-11-09T12:06:10Z</time>
      </trkpt>
      <trkpt lat="43.08553" lon="-0.02957">
        <ele>704.3</ele>
        <time>2013-11-09T12:06:23Z</time>
      </trkpt>
      <trkpt lat="43.08553" lon="-0.0296">
        <ele>705.75</ele>
        <time>2013-11-09T12:06:36Z</time>
      </trkpt>
      <trkpt lat="43.08553" lon="-0.02972">
        <ele>706.71</ele>
        <time>2013-11-09T12:06:49Z</time>
      </trkpt>
      <trkpt lat="43.08554" lon="-0.02983">
        <ele>708.15</ele>
        <time>2013-11-09T12:07:03Z</time>
      </trkpt>
      <trkpt lat="43.08552" lon="-0.02999">
        <ele>709.11</ele>
        <time>2013-11-09T12:07:14Z</time>
      </trkpt>
      <trkpt lat="43.08554" lon="-0.03006">
        <ele>710.55</ele>
        <time>2013-11-09T12:07:27Z</time>
      </trkpt>
      <trkpt lat="43.08561" lon="-0.03017">
        <ele>711.99</ele>
        <time>2013-11-09T12:07:41Z</time>
      </trkpt>
      <trkpt lat="43.08571" lon="-0.03035">
        <ele>713.92</ele>
        <time>2013-11-09T12:07:54Z</time>
      </trkpt>
      <trkpt lat="43.08573" lon="-0.03042">
        <ele>714.4</ele>
        <time>2013-11-09T12:08:00Z</time>
      </trkpt>
      <trkpt lat="43.0858" lon="-0.03058">
        <ele>715.84</ele>
        <time>2013-11-09T12:08:11Z</time>
      </trkpt>
      <trkpt lat="43.08585" lon="-0.03073">
        <ele>717.28</ele>
        <time>2013-11-09T12:08:23Z</time>
      </trkpt>
      <trkpt lat="43.08587" lon="-0.03081">
        <ele>718.24</ele>
        <time>2013-11-09T12:08:32Z</time>
      </trkpt>
      <trkpt lat="43.08591" lon="-0.03092">
        <ele>719.68</ele>
        <time>2013-11-09T12:08:44Z</time>
      </trkpt>
      <trkpt lat="43.08592" lon="-0.031">
        <ele>720.65</ele>
        <time>2013-11-09T12:08:54Z</time>
      </trkpt>
      <trkpt lat="43.0859" lon="-0.0311">
        <ele>721.61</ele>
        <time>2013-11-09T12:09:05Z</time>
      </trkpt>
      <trkpt lat="43.08593" lon="-0.03118">
        <ele>723.05</ele>
        <time>2013-11-09T12:09:16Z</time>
      </trkpt>
      <trkpt lat="43.08589" lon="-0.0313">
        <ele>724.01</ele>
        <time>2013-11-09T12:09:29Z</time>
      </trkpt>
      <trkpt lat="43.08588" lon="-0.03132">
        <ele>725.93</ele>
        <time>2013-11-09T12:09:45Z</time>
      </trkpt>
      <trkpt lat="43.08588" lon="-0.03149">
        <ele>727.37</ele>
        <time>2013-11-09T12:10:01Z</time>
      </trkpt>
      <trkpt lat="43.08569" lon="-0.03175">
        <ele>729.3</ele>
        <time>2013-11-09T12:10:17Z</time>
      </trkpt>
      <trkpt lat="43.08556" lon="-0.03193">
        <ele>730.26</ele>
        <time>2013-11-09T12:10:30Z</time>
      </trkpt>
      <trkpt lat="43.08548" lon="-0.03202">
        <ele>731.7</ele>
        <time>2013-11-09T12:10:43Z</time>
      </trkpt>
      <trkpt lat="43.08536" lon="-0.03214">
        <ele>732.66</ele>
        <time>2013-11-09T12:10:55Z</time>
      </trkpt>
      <trkpt lat="43.08525" lon="-0.03222">
        <ele>734.58</ele>
        <time>2013-11-09T12:11:11Z</time>
      </trkpt>
      <trkpt lat="43.08517" lon="-0.03228">
        <ele>735.55</ele>
        <time>2013-11-09T12:11:23Z</time>
      </trkpt>
      <trkpt lat="43.08506" lon="-0.03239">
        <ele>736.99</ele>
        <time>2013-11-09T12:11:37Z</time>
      </trkpt>
      <trkpt lat="43.08495" lon="-0.03249">
        <ele>737.95</ele>
        <time>2013-11-09T12:11:50Z</time>
      </trkpt>
      <trkpt lat="43.08487" lon="-0.03256">
        <ele>739.39</ele>
        <time>2013-11-09T12:12:03Z</time>
      </trkpt>
      <trkpt lat="43.08482" lon="-0.03261">
        <ele>739.87</ele>
        <time>2013-11-09T12:12:10Z</time>
      </trkpt>
      <trkpt lat="43.08474" lon="-0.03267">
        <ele>741.31</ele>
        <time>2013-11-09T12:12:21Z</time>
      </trkpt>
      <trkpt lat="43.08471" lon="-0.0327">
        <ele>741.79</ele>
        <time>2013-11-09T12:12:25Z</time>
      </trkpt>
      <trkpt lat="43.08459" lon="-0.03281">
        <ele>742.76</ele>
        <time>2013-11-09T12:12:39Z</time>
      </trkpt>
      <trkpt lat="43.08454" lon="-0.03285">
        <ele>743.24</ele>
        <time>2013-11-09T12:12:45Z</time>
      </trkpt>
      <trkpt lat="43.08443" lon="-0.03296">
        <ele>744.2</ele>
        <time>2013-11-09T12:12:54Z</time>
      </trkpt>
      <trkpt lat="43.08441" lon="-0.03299">
        <ele>744.2</ele>
        <time>2013-11-09T12:12:56Z</time>
      </trkpt>
      <trkpt lat="43.08428" lon="-0.03311">
        <ele>746.12</ele>
        <time>2013-11-09T12:13:11Z</time>
      </trkpt>
      <trkpt lat="43.08415" lon="-0.03321">
        <ele>747.56</ele>
        <time>2013-11-09T12:13:25Z</time>
      </trkpt>
      <trkpt lat="43.08407" lon="-0.03328">
        <ele>748.52</ele>
        <time>2013-11-09T12:13:36Z</time>
      </trkpt>
      <trkpt lat="43.08394" lon="-0.03339">
        <ele>750.45</ele>
        <time>2013-11-09T12:13:52Z</time>
      </trkpt>
      <trkpt lat="43.08385" lon="-0.03346">
        <ele>751.41</ele>
        <time>2013-11-09T12:14:04Z</time>
      </trkpt>
      <trkpt lat="43.08381" lon="-0.03349">
        <ele>752.37</ele>
        <time>2013-11-09T12:14:09Z</time>
      </trkpt>
      <trkpt lat="43.0837" lon="-0.03361">
        <ele>753.33</ele>
        <time>2013-11-09T12:14:24Z</time>
      </trkpt>
      <trkpt lat="43.08358" lon="-0.03369">
        <ele>755.25</ele>
        <time>2013-11-09T12:14:39Z</time>
      </trkpt>
      <trkpt lat="43.08356" lon="-0.03362">
        <ele>756.21</ele>
        <time>2013-11-09T12:14:51Z</time>
      </trkpt>
      <trkpt lat="43.08364" lon="-0.03354">
        <ele>758.14</ele>
        <time>2013-11-09T12:15:04Z</time>
      </trkpt>
      <trkpt lat="43.08368" lon="-0.03346">
        <ele>758.62</ele>
        <time>2013-11-09T12:15:12Z</time>
      </trkpt>
      <trkpt lat="43.0837" lon="-0.03339">
        <ele>759.58</ele>
        <time>2013-11-09T12:15:18Z</time>
      </trkpt>
      <trkpt lat="43.08373" lon="-0.03333">
        <ele>760.06</ele>
        <time>2013-11-09T12:15:24Z</time>
      </trkpt>
      <trkpt lat="43.08375" lon="-0.03329">
        <ele>760.06</ele>
        <time>2013-11-09T12:15:27Z</time>
      </trkpt>
      <trkpt lat="43.08382" lon="-0.03314">
        <ele>762.46</ele>
        <time>2013-11-09T12:15:41Z</time>
      </trkpt>
      <trkpt lat="43.08389" lon="-0.03303">
        <ele>763.42</ele>
        <time>2013-11-09T12:15:52Z</time>
      </trkpt>
      <trkpt lat="43.08395" lon="-0.03287">
        <ele>764.87</ele>
        <time>2013-11-09T12:16:08Z</time>
      </trkpt>
      <trkpt lat="43.08402" lon="-0.03272">
        <ele>766.79</ele>
        <time>2013-11-09T12:16:22Z</time>
      </trkpt>
      <trkpt lat="43.08406" lon="-0.03264">
        <ele>767.75</ele>
        <time>2013-11-09T12:16:35Z</time>
      </trkpt>
      <trkpt lat="43.08413" lon="-0.03254">
        <ele>769.19</ele>
        <time>2013-11-09T12:16:47Z</time>
      </trkpt>
      <trkpt lat="43.08414" lon="-0.03253">
        <ele>769.19</ele>
        <time>2013-11-09T12:16:48Z</time>
      </trkpt>
      <trkpt lat="43.08418" lon="-0.03237">
        <ele>770.15</ele>
        <time>2013-11-09T12:17:00Z</time>
      </trkpt>
      <trkpt lat="43.08422" lon="-0.03222">
        <ele>772.08</ele>
        <time>2013-11-09T12:17:14Z</time>
      </trkpt>
      <trkpt lat="43.08426" lon="-0.03211">
        <ele>773.52</ele>
        <time>2013-11-09T12:17:28Z</time>
      </trkpt>
      <trkpt lat="43.0843" lon="-0.03201">
        <ele>775.44</ele>
        <time>2013-11-09T12:17:42Z</time>
      </trkpt>
      <trkpt lat="43.08434" lon="-0.0319">
        <ele>776.88</ele>
        <time>2013-11-09T12:17:55Z</time>
      </trkpt>
      <trkpt lat="43.08437" lon="-0.03171">
        <ele>778.32</ele>
        <time>2013-11-09T12:18:08Z</time>
      </trkpt>
      <trkpt lat="43.08441" lon="-0.03154">
        <ele>779.77</ele>
        <time>2013-11-09T12:18:22Z</time>
      </trkpt>
      <trkpt lat="43.08444" lon="-0.03138">
        <ele>781.21</ele>
        <time>2013-11-09T12:18:36Z</time>
      </trkpt>
      <trkpt lat="43.08445" lon="-0.03136">
        <ele>781.21</ele>
        <time>2013-11-09T12:18:38Z</time>
      </trkpt>
      <trkpt lat="43.08446" lon="-0.03129">
        <ele>781.69</ele>
        <time>2013-11-09T12:18:42Z</time>
      </trkpt>
      <trkpt lat="43.08449" lon="-0.03107">
        <ele>782.17</ele>
        <time>2013-11-09T12:18:57Z</time>
      </trkpt>
      <trkpt lat="43.08449" lon="-0.03102">
        <ele>782.65</ele>
        <time>2013-11-09T12:19:02Z</time>
      </trkpt>
      <trkpt lat="43.08448" lon="-0.03099">
        <ele>782.65</ele>
        <time>2013-11-09T12:19:05Z</time>
      </trkpt>
      <trkpt lat="43.08443" lon="-0.03098">
        <ele>784.09</ele>
        <time>2013-11-09T12:19:12Z</time>
      </trkpt>
      <trkpt lat="43.08439" lon="-0.03116">
        <ele>785.53</ele>
        <time>2013-11-09T12:19:27Z</time>
      </trkpt>
      <trkpt lat="43.08438" lon="-0.03118">
        <ele>785.05</ele>
        <time>2013-11-09T12:19:30Z</time>
      </trkpt>
      <trkpt lat="43.08435" lon="-0.03128">
        <ele>786.02</ele>
        <time>2013-11-09T12:19:39Z</time>
      </trkpt>
      <trkpt lat="43.08427" lon="-0.03142">
        <ele>787.94</ele>
        <time>2013-11-09T12:19:54Z</time>
      </trkpt>
      <trkpt lat="43.08424" lon="-0.03146">
        <ele>788.9</ele>
        <time>2013-11-09T12:19:59Z</time>
      </trkpt>
      <trkpt lat="43.08415" lon="-0.03157">
        <ele>790.82</ele>
        <time>2013-11-09T12:20:12Z</time>
      </trkpt>
      <trkpt lat="43.08405" lon="-0.0317">
        <ele>792.26</ele>
        <time>2013-11-09T12:20:27Z</time>
      </trkpt>
      <trkpt lat="43.08397" lon="-0.0318">
        <ele>794.19</ele>
        <time>2013-11-09T12:20:40Z</time>
      </trkpt>
      <trkpt lat="43.08391" lon="-0.03188">
        <ele>796.11</ele>
        <time>2013-11-09T12:20:56Z</time>
      </trkpt>
      <trkpt lat="43.08383" lon="-0.03198">
        <ele>798.03</ele>
        <time>2013-11-09T12:21:10Z</time>
      </trkpt>
      <trkpt lat="43.08373" lon="-0.03209">
        <ele>799.47</ele>
        <time>2013-11-09T12:21:23Z</time>
      </trkpt>
      <trkpt lat="43.08364" lon="-0.03221">
        <ele>801.4</ele>
        <time>2013-11-09T12:21:37Z</time>
      </trkpt>
      <trkpt lat="43.08357" lon="-0.0323">
        <ele>802.84</ele>
        <time>2013-11-09T12:21:49Z</time>
      </trkpt>
      <trkpt lat="43.08351" lon="-0.03238">
        <ele>804.28</ele>
        <time>2013-11-09T12:22:00Z</time>
      </trkpt>
      <trkpt lat="43.08344" lon="-0.03244">
        <ele>806.2</ele>
        <time>2013-11-09T12:22:11Z</time>
      </trkpt>
      <trkpt lat="43.08337" lon="-0.0325">
        <ele>807.64</ele>
        <time>2013-11-09T12:22:20Z</time>
      </trkpt>
      <trkpt lat="43.08333" lon="-0.03254">
        <ele>808.61</ele>
        <time>2013-11-09T12:22:31Z</time>
      </trkpt>
      <trkpt lat="43.0832" lon="-0.03264">
        <ele>810.53</ele>
        <time>2013-11-09T12:22:43Z</time>
      </trkpt>
      <trkpt lat="43.08316" lon="-0.03265">
        <ele>810.53</ele>
        <time>2013-11-09T12:22:47Z</time>
      </trkpt>
      <trkpt lat="43.08311" lon="-0.03269">
        <ele>811.49</ele>
        <time>2013-11-09T12:22:53Z</time>
      </trkpt>
      <trkpt lat="43.08308" lon="-0.0327">
        <ele>811.97</ele>
        <time>2013-11-09T12:22:56Z</time>
      </trkpt>
      <trkpt lat="43.08306" lon="-0.0327">
        <ele>812.45</ele>
        <time>2013-11-09T12:22:58Z</time>
      </trkpt>
      <trkpt lat="43.08291" lon="-0.03279">
        <ele>813.89</ele>
        <time>2013-11-09T12:23:13Z</time>
      </trkpt>
      <trkpt lat="43.08276" lon="-0.03283">
        <ele>816.78</ele>
        <time>2013-11-09T12:23:29Z</time>
      </trkpt>
      <trkpt lat="43.0827" lon="-0.03284">
        <ele>817.26</ele>
        <time>2013-11-09T12:23:35Z</time>
      </trkpt>
      <trkpt lat="43.08258" lon="-0.03281">
        <ele>819.18</ele>
        <time>2013-11-09T12:23:50Z</time>
      </trkpt>
      <trkpt lat="43.08248" lon="-0.03286">
        <ele>821.1</ele>
        <time>2013-11-09T12:24:03Z</time>
      </trkpt>
      <trkpt lat="43.08235" lon="-0.03283">
        <ele>823.51</ele>
        <time>2013-11-09T12:24:18Z</time>
      </trkpt>
      <trkpt lat="43.08225" lon="-0.03284">
        <ele>824.95</ele>
        <time>2013-11-09T12:24:29Z</time>
      </trkpt>
      <trkpt lat="43.08222" lon="-0.03283">
        <ele>825.91</ele>
        <time>2013-11-09T12:24:32Z</time>
      </trkpt>
      <trkpt lat="43.08212" lon="-0.03285">
        <ele>826.39</ele>
        <time>2013-11-09T12:24:43Z</time>
      </trkpt>
      <trkpt lat="43.08208" lon="-0.03287">
        <ele>827.83</ele>
        <time>2013-11-09T12:24:48Z</time>
      </trkpt>
      <trkpt lat="43.08201" lon="-0.03289">
        <ele>827.35</ele>
        <time>2013-11-09T12:24:55Z</time>
      </trkpt>
      <trkpt lat="43.08195" lon="-0.03294">
        <ele>828.31</ele>
        <time>2013-11-09T12:25:02Z</time>
      </trkpt>
      <trkpt lat="43.08188" lon="-0.03294">
        <ele>829.27</ele>
        <time>2013-11-09T12:25:11Z</time>
      </trkpt>
      <trkpt lat="43.08188" lon="-0.03289">
        <ele>829.76</ele>
        <time>2013-11-09T12:25:15Z</time>
      </trkpt>
      <trkpt lat="43.08197" lon="-0.03282">
        <ele>831.2</ele>
        <time>2013-11-09T12:25:28Z</time>
      </trkpt>
      <trkpt lat="43.08206" lon="-0.03273">
        <ele>832.16</ele>
        <time>2013-11-09T12:25:41Z</time>
      </trkpt>
      <trkpt lat="43.08212" lon="-0.03265">
        <ele>833.12</ele>
        <time>2013-11-09T12:25:50Z</time>
      </trkpt>
      <trkpt lat="43.08213" lon="-0.03263">
        <ele>833.6</ele>
        <time>2013-11-09T12:25:52Z</time>
      </trkpt>
      <trkpt lat="43.08221" lon="-0.03248">
        <ele>836</ele>
        <time>2013-11-09T12:26:07Z</time>
      </trkpt>
      <trkpt lat="43.0823" lon="-0.03232">
        <ele>838.41</ele>
        <time>2013-11-09T12:26:23Z</time>
      </trkpt>
      <trkpt lat="43.08232" lon="-0.03229">
        <ele>838.41</ele>
        <time>2013-11-09T12:26:26Z</time>
      </trkpt>
      <trkpt lat="43.08234" lon="-0.03226">
        <ele>839.37</ele>
        <time>2013-11-09T12:26:29Z</time>
      </trkpt>
      <trkpt lat="43.08237" lon="-0.0322">
        <ele>839.85</ele>
        <time>2013-11-09T12:26:35Z</time>
      </trkpt>
      <trkpt lat="43.08241" lon="-0.0321">
        <ele>841.77</ele>
        <time>2013-11-09T12:26:45Z</time>
      </trkpt>
      <trkpt lat="43.08248" lon="-0.03196">
        <ele>843.69</ele>
        <time>2013-11-09T12:26:59Z</time>
      </trkpt>
      <trkpt lat="43.0825" lon="-0.03191">
        <ele>844.66</ele>
        <time>2013-11-09T12:27:04Z</time>
      </trkpt>
      <trkpt lat="43.08261" lon="-0.03175">
        <ele>847.06</ele>
        <time>2013-11-09T12:27:21Z</time>
      </trkpt>
      <trkpt lat="43.08271" lon="-0.03166">
        <ele>848.5</ele>
        <time>2013-11-09T12:27:34Z</time>
      </trkpt>
      <trkpt lat="43.0828" lon="-0.03155">
        <ele>849.94</ele>
        <time>2013-11-09T12:27:47Z</time>
      </trkpt>
      <trkpt lat="43.0829" lon="-0.03152">
        <ele>851.38</ele>
        <time>2013-11-09T12:28:00Z</time>
      </trkpt>
      <trkpt lat="43.08291" lon="-0.03151">
        <ele>851.87</ele>
        <time>2013-11-09T12:28:01Z</time>
      </trkpt>
      <trkpt lat="43.08293" lon="-0.03149">
        <ele>851.87</ele>
        <time>2013-11-09T12:28:03Z</time>
      </trkpt>
      <trkpt lat="43.08294" lon="-0.03141">
        <ele>852.83</ele>
        <time>2013-11-09T12:28:10Z</time>
      </trkpt>
      <trkpt lat="43.08289" lon="-0.03138">
        <ele>853.31</ele>
        <time>2013-11-09T12:28:16Z</time>
      </trkpt>
      <trkpt lat="43.08279" lon="-0.03143">
        <ele>853.79</ele>
        <time>2013-11-09T12:28:34Z</time>
      </trkpt>
      <trkpt lat="43.08273" lon="-0.03141">
        <ele>854.75</ele>
        <time>2013-11-09T12:28:42Z</time>
      </trkpt>
      <trkpt lat="43.08269" lon="-0.03138">
        <ele>855.23</ele>
        <time>2013-11-09T12:28:46Z</time>
      </trkpt>
      <trkpt lat="43.08264" lon="-0.03133">
        <ele>856.19</ele>
        <time>2013-11-09T12:28:53Z</time>
      </trkpt>
      <trkpt lat="43.08252" lon="-0.03134">
        <ele>858.11</ele>
        <time>2013-11-09T12:29:06Z</time>
      </trkpt>
      <trkpt lat="43.0825" lon="-0.03135">
        <ele>858.59</ele>
        <time>2013-11-09T12:29:08Z</time>
      </trkpt>
      <trkpt lat="43.08247" lon="-0.03135">
        <ele>858.59</ele>
        <time>2013-11-09T12:29:11Z</time>
      </trkpt>
      <trkpt lat="43.08236" lon="-0.0314">
        <ele>861</ele>
        <time>2013-11-09T12:29:26Z</time>
      </trkpt>
      <trkpt lat="43.08234" lon="-0.03142">
        <ele>861.96</ele>
        <time>2013-11-09T12:29:30Z</time>
      </trkpt>
      <trkpt lat="43.08224" lon="-0.03149">
        <ele>863.4</ele>
        <time>2013-11-09T12:29:42Z</time>
      </trkpt>
      <trkpt lat="43.08213" lon="-0.03157">
        <ele>865.32</ele>
        <time>2013-11-09T12:29:56Z</time>
      </trkpt>
      <trkpt lat="43.08202" lon="-0.03158">
        <ele>867.73</ele>
        <time>2013-11-09T12:30:10Z</time>
      </trkpt>
      <trkpt lat="43.08191" lon="-0.03162">
        <ele>869.17</ele>
        <time>2013-11-09T12:30:23Z</time>
      </trkpt>
      <trkpt lat="43.08188" lon="-0.03162">
        <ele>869.65</ele>
        <time>2013-11-09T12:30:27Z</time>
      </trkpt>
      <trkpt lat="43.08183" lon="-0.03164">
        <ele>870.61</ele>
        <time>2013-11-09T12:30:33Z</time>
      </trkpt>
      <trkpt lat="43.08178" lon="-0.03169">
        <ele>871.57</ele>
        <time>2013-11-09T12:30:40Z</time>
      </trkpt>
      <trkpt lat="43.08168" lon="-0.03173">
        <ele>873.5</ele>
        <time>2013-11-09T12:30:51Z</time>
      </trkpt>
      <trkpt lat="43.08157" lon="-0.03176">
        <ele>874.46</ele>
        <time>2013-11-09T12:31:04Z</time>
      </trkpt>
      <trkpt lat="43.08156" lon="-0.03177">
        <ele>874.94</ele>
        <time>2013-11-09T12:31:05Z</time>
      </trkpt>
      <trkpt lat="43.08146" lon="-0.0318">
        <ele>876.38</ele>
        <time>2013-11-09T12:31:16Z</time>
      </trkpt>
      <trkpt lat="43.08144" lon="-0.03182">
        <ele>875.9</ele>
        <time>2013-11-09T12:31:18Z</time>
      </trkpt>
      <trkpt lat="43.0814" lon="-0.03184">
        <ele>876.86</ele>
        <time>2013-11-09T12:31:23Z</time>
      </trkpt>
      <trkpt lat="43.08134" lon="-0.03186">
        <ele>877.82</ele>
        <time>2013-11-09T12:31:30Z</time>
      </trkpt>
      <trkpt lat="43.08123" lon="-0.03194">
        <ele>879.74</ele>
        <time>2013-11-09T12:31:43Z</time>
      </trkpt>
      <trkpt lat="43.08119" lon="-0.03196">
        <ele>880.22</ele>
        <time>2013-11-09T12:31:47Z</time>
      </trkpt>
      <trkpt lat="43.08112" lon="-0.032">
        <ele>880.22</ele>
        <time>2013-11-09T12:31:55Z</time>
      </trkpt>
      <trkpt lat="43.08106" lon="-0.03206">
        <ele>881.19</ele>
        <time>2013-11-09T12:32:08Z</time>
      </trkpt>
      <trkpt lat="43.08096" lon="-0.03213">
        <ele>881.67</ele>
        <time>2013-11-09T12:32:21Z</time>
      </trkpt>
      <trkpt lat="43.08085" lon="-0.0323">
        <ele>880.22</ele>
        <time>2013-11-09T12:32:38Z</time>
      </trkpt>
      <trkpt lat="43.08074" lon="-0.03237">
        <ele>881.19</ele>
        <time>2013-11-09T12:32:51Z</time>
      </trkpt>
      <trkpt lat="43.08066" lon="-0.03241">
        <ele>880.71</ele>
        <time>2013-11-09T12:32:59Z</time>
      </trkpt>
      <trkpt lat="43.08063" lon="-0.03245">
        <ele>881.19</ele>
        <time>2013-11-09T12:33:14Z</time>
      </trkpt>
      <trkpt lat="43.08058" lon="-0.03246">
        <ele>881.19</ele>
        <time>2013-11-09T12:33:19Z</time>
      </trkpt>
      <trkpt lat="43.08041" lon="-0.03253">
        <ele>881.19</ele>
        <time>2013-11-09T12:33:37Z</time>
      </trkpt>
      <trkpt lat="43.08037" lon="-0.03251">
        <ele>881.19</ele>
        <time>2013-11-09T12:33:53Z</time>
      </trkpt>
      <trkpt lat="43.08034" lon="-0.03254">
        <ele>880.71</ele>
        <time>2013-11-09T12:34:09Z</time>
      </trkpt>
      <trkpt lat="43.08031" lon="-0.03254">
        <ele>880.71</ele>
        <time>2013-11-09T12:34:23Z</time>
      </trkpt>
      <trkpt lat="43.08026" lon="-0.03259">
        <ele>881.19</ele>
        <time>2013-11-09T12:34:28Z</time>
      </trkpt>
      <trkpt lat="43.08011" lon="-0.03266">
        <ele>882.63</ele>
        <time>2013-11-09T12:34:43Z</time>
      </trkpt>
      <trkpt lat="43.0801" lon="-0.03266">
        <ele>882.63</ele>
        <time>2013-11-09T12:34:44Z</time>
      </trkpt>
      <trkpt lat="43.07998" lon="-0.03265">
        <ele>884.55</ele>
        <time>2013-11-09T12:34:57Z</time>
      </trkpt>
      <trkpt lat="43.07987" lon="-0.03262">
        <ele>887.91</ele>
        <time>2013-11-09T12:35:10Z</time>
      </trkpt>
      <trkpt lat="43.07976" lon="-0.03257">
        <ele>889.84</ele>
        <time>2013-11-09T12:35:24Z</time>
      </trkpt>
      <trkpt lat="43.07972" lon="-0.03253">
        <ele>890.32</ele>
        <time>2013-11-09T12:35:37Z</time>
      </trkpt>
      <trkpt lat="43.07977" lon="-0.03254">
        <ele>890.32</ele>
        <time>2013-11-09T12:35:44Z</time>
      </trkpt>
      <trkpt lat="43.0799" lon="-0.03258">
        <ele>891.76</ele>
        <time>2013-11-09T12:35:58Z</time>
      </trkpt>
      <trkpt lat="43.07987" lon="-0.0325">
        <ele>892.72</ele>
        <time>2013-11-09T12:36:10Z</time>
      </trkpt>
      <trkpt lat="43.07996" lon="-0.03244">
        <ele>894.64</ele>
        <time>2013-11-09T12:36:24Z</time>
      </trkpt>
      <trkpt lat="43.08002" lon="-0.0324">
        <ele>896.09</ele>
        <time>2013-11-09T12:36:31Z</time>
      </trkpt>
      <trkpt lat="43.08011" lon="-0.03237">
        <ele>896.57</ele>
        <time>2013-11-09T12:36:46Z</time>
      </trkpt>
      <trkpt lat="43.08025" lon="-0.03222">
        <ele>898.01</ele>
        <time>2013-11-09T12:37:03Z</time>
      </trkpt>
      <trkpt lat="43.08028" lon="-0.03219">
        <ele>898.49</ele>
        <time>2013-11-09T12:37:06Z</time>
      </trkpt>
      <trkpt lat="43.08038" lon="-0.03209">
        <ele>899.45</ele>
        <time>2013-11-09T12:37:22Z</time>
      </trkpt>
      <trkpt lat="43.08053" lon="-0.03195">
        <ele>900.41</ele>
        <time>2013-11-09T12:37:37Z</time>
      </trkpt>
      <trkpt lat="43.08068" lon="-0.03177">
        <ele>901.37</ele>
        <time>2013-11-09T12:37:56Z</time>
      </trkpt>
      <trkpt lat="43.08078" lon="-0.03164">
        <ele>901.85</ele>
        <time>2013-11-09T12:38:09Z</time>
      </trkpt>
      <trkpt lat="43.0808" lon="-0.03162">
        <ele>902.33</ele>
        <time>2013-11-09T12:38:13Z</time>
      </trkpt>
      <trkpt lat="43.08089" lon="-0.03154">
        <ele>902.82</ele>
        <time>2013-11-09T12:38:21Z</time>
      </trkpt>
      <trkpt lat="43.08097" lon="-0.03135">
        <ele>904.74</ele>
        <time>2013-11-09T12:38:39Z</time>
      </trkpt>
      <trkpt lat="43.08086" lon="-0.03144">
        <ele>905.7</ele>
        <time>2013-11-09T12:38:52Z</time>
      </trkpt>
      <trkpt lat="43.08077" lon="-0.03149">
        <ele>906.18</ele>
        <time>2013-11-09T12:39:03Z</time>
      </trkpt>
      <trkpt lat="43.08072" lon="-0.03154">
        <ele>906.66</ele>
        <time>2013-11-09T12:39:09Z</time>
      </trkpt>
      <trkpt lat="43.08066" lon="-0.03159">
        <ele>907.62</ele>
        <time>2013-11-09T12:39:14Z</time>
      </trkpt>
      <trkpt lat="43.08051" lon="-0.03174">
        <ele>908.58</ele>
        <time>2013-11-09T12:39:31Z</time>
      </trkpt>
      <trkpt lat="43.08037" lon="-0.03184">
        <ele>910.03</ele>
        <time>2013-11-09T12:39:46Z</time>
      </trkpt>
      <trkpt lat="43.08025" lon="-0.03187">
        <ele>911.47</ele>
        <time>2013-11-09T12:40:00Z</time>
      </trkpt>
      <trkpt lat="43.08012" lon="-0.03189">
        <ele>912.91</ele>
        <time>2013-11-09T12:40:13Z</time>
      </trkpt>
      <trkpt lat="43.07997" lon="-0.03189">
        <ele>914.83</ele>
        <time>2013-11-09T12:40:28Z</time>
      </trkpt>
      <trkpt lat="43.07994" lon="-0.0319">
        <ele>915.31</ele>
        <time>2013-11-09T12:40:31Z</time>
      </trkpt>
      <trkpt lat="43.07979" lon="-0.03191">
        <ele>916.75</ele>
        <time>2013-11-09T12:40:45Z</time>
      </trkpt>
      <trkpt lat="43.07968" lon="-0.03182">
        <ele>918.68</ele>
        <time>2013-11-09T12:41:01Z</time>
      </trkpt>
      <trkpt lat="43.07957" lon="-0.03176">
        <ele>920.12</ele>
        <time>2013-11-09T12:41:13Z</time>
      </trkpt>
      <trkpt lat="43.07946" lon="-0.03171">
        <ele>921.56</ele>
        <time>2013-11-09T12:41:26Z</time>
      </trkpt>
      <trkpt lat="43.07936" lon="-0.03161">
        <ele>923.48</ele>
        <time>2013-11-09T12:41:42Z</time>
      </trkpt>
      <trkpt lat="43.0792" lon="-0.03151">
        <ele>925.89</ele>
        <time>2013-11-09T12:41:58Z</time>
      </trkpt>
      <trkpt lat="43.07913" lon="-0.03139">
        <ele>927.81</ele>
        <time>2013-11-09T12:42:11Z</time>
      </trkpt>
      <trkpt lat="43.07914" lon="-0.03136">
        <ele>928.29</ele>
        <time>2013-11-09T12:42:15Z</time>
      </trkpt>
      <trkpt lat="43.07921" lon="-0.03118">
        <ele>927.33</ele>
        <time>2013-11-09T12:42:33Z</time>
      </trkpt>
      <trkpt lat="43.07927" lon="-0.03115">
        <ele>929.25</ele>
        <time>2013-11-09T12:42:45Z</time>
      </trkpt>
      <trkpt lat="43.07933" lon="-0.03116">
        <ele>931.65</ele>
        <time>2013-11-09T12:42:58Z</time>
      </trkpt>
      <trkpt lat="43.07938" lon="-0.03121">
        <ele>934.06</ele>
        <time>2013-11-09T12:43:11Z</time>
      </trkpt>
      <trkpt lat="43.07944" lon="-0.03122">
        <ele>936.94</ele>
        <time>2013-11-09T12:43:27Z</time>
      </trkpt>
      <trkpt lat="43.07953" lon="-0.03124">
        <ele>938.38</ele>
        <time>2013-11-09T12:43:39Z</time>
      </trkpt>
      <trkpt lat="43.07961" lon="-0.03124">
        <ele>940.79</ele>
        <time>2013-11-09T12:43:55Z</time>
      </trkpt>
      <trkpt lat="43.07963" lon="-0.03129">
        <ele>941.27</ele>
        <time>2013-11-09T12:44:07Z</time>
      </trkpt>
      <trkpt lat="43.07962" lon="-0.03129">
        <ele>944.15</ele>
        <time>2013-11-09T12:44:22Z</time>
      </trkpt>
      <trkpt lat="43.0796" lon="-0.03129">
        <ele>946.56</ele>
        <time>2013-11-09T12:44:37Z</time>
      </trkpt>
      <trkpt lat="43.07956" lon="-0.03128">
        <ele>946.56</ele>
        <time>2013-11-09T12:44:52Z</time>
      </trkpt>
      <trkpt lat="43.07958" lon="-0.03128">
        <ele>946.07</ele>
        <time>2013-11-09T12:45:08Z</time>
      </trkpt>
      <trkpt lat="43.07958" lon="-0.03128">
        <ele>946.07</ele>
        <time>2013-11-09T12:45:27Z</time>
      </trkpt>
      <trkpt lat="43.07956" lon="-0.03128">
        <ele>946.07</ele>
        <time>2013-11-09T12:45:46Z</time>
      </trkpt>
      <trkpt lat="43.07956" lon="-0.03129">
        <ele>946.56</ele>
        <time>2013-11-09T12:46:03Z</time>
      </trkpt>
      <trkpt lat="43.07955" lon="-0.03129">
        <ele>946.56</ele>
        <time>2013-11-09T12:46:25Z</time>
      </trkpt>
      <trkpt lat="43.07956" lon="-0.03128">
        <ele>946.56</ele>
        <time>2013-11-09T12:46:41Z</time>
      </trkpt>
      <trkpt lat="43.07956" lon="-0.03128">
        <ele>946.56</ele>
        <time>2013-11-09T12:46:53Z</time>
      </trkpt>
      <trkpt lat="43.07955" lon="-0.03129">
        <ele>947.04</ele>
        <time>2013-11-09T12:47:07Z</time>
      </trkpt>
      <trkpt lat="43.07955" lon="-0.03129">
        <ele>946.56</ele>
        <time>2013-11-09T12:47:25Z</time>
      </trkpt>
      <trkpt lat="43.07952" lon="-0.03129">
        <ele>947.04</ele>
        <time>2013-11-09T12:47:41Z</time>
      </trkpt>
      <trkpt lat="43.07952" lon="-0.03129">
        <ele>947.04</ele>
        <time>2013-11-09T12:47:57Z</time>
      </trkpt>
      <trkpt lat="43.07953" lon="-0.03129">
        <ele>946.56</ele>
        <time>2013-11-09T12:48:18Z</time>
      </trkpt>
      <trkpt lat="43.07956" lon="-0.0313">
        <ele>946.07</ele>
        <time>2013-11-09T12:48:32Z</time>
      </trkpt>
      <trkpt lat="43.07956" lon="-0.0313">
        <ele>943.67</ele>
        <time>2013-11-09T12:48:51Z</time>
      </trkpt>
      <trkpt lat="43.07962" lon="-0.0313">
        <ele>941.75</ele>
        <time>2013-11-09T12:49:04Z</time>
      </trkpt>
      <trkpt lat="43.07971" lon="-0.03125">
        <ele>942.71</ele>
        <time>2013-11-09T12:49:19Z</time>
      </trkpt>
      <trkpt lat="43.07975" lon="-0.03123">
        <ele>943.67</ele>
        <time>2013-11-09T12:49:31Z</time>
      </trkpt>
      <trkpt lat="43.07978" lon="-0.03123">
        <ele>943.19</ele>
        <time>2013-11-09T12:49:46Z</time>
      </trkpt>
      <trkpt lat="43.07978" lon="-0.03123">
        <ele>943.19</ele>
        <time>2013-11-09T12:50:02Z</time>
      </trkpt>
      <trkpt lat="43.07977" lon="-0.03125">
        <ele>942.71</ele>
        <time>2013-11-09T12:50:26Z</time>
      </trkpt>
      <trkpt lat="43.07977" lon="-0.03125">
        <ele>942.71</ele>
        <time>2013-11-09T12:50:45Z</time>
      </trkpt>
      <trkpt lat="43.07976" lon="-0.03123">
        <ele>943.19</ele>
        <time>2013-11-09T12:51:04Z</time>
      </trkpt>
      <trkpt lat="43.07974" lon="-0.03121">
        <ele>943.19</ele>
        <time>2013-11-09T12:51:18Z</time>
      </trkpt>
      <trkpt lat="43.07973" lon="-0.03121">
        <ele>942.71</ele>
        <time>2013-11-09T12:51:33Z</time>
      </trkpt>
      <trkpt lat="43.07976" lon="-0.03123">
        <ele>943.67</ele>
        <time>2013-11-09T12:51:48Z</time>
      </trkpt>
      <trkpt lat="43.07978" lon="-0.0312">
        <ele>943.19</ele>
        <time>2013-11-09T12:52:03Z</time>
      </trkpt>
      <trkpt lat="43.07973" lon="-0.03119">
        <ele>943.19</ele>
        <time>2013-11-09T12:52:17Z</time>
      </trkpt>
      <trkpt lat="43.07973" lon="-0.03119">
        <ele>943.19</ele>
        <time>2013-11-09T12:52:35Z</time>
      </trkpt>
      <trkpt lat="43.07973" lon="-0.0312">
        <ele>943.19</ele>
        <time>2013-11-09T12:52:58Z</time>
      </trkpt>
      <trkpt lat="43.07975" lon="-0.0312">
        <ele>943.67</ele>
        <time>2013-11-09T12:53:09Z</time>
      </trkpt>
      <trkpt lat="43.07977" lon="-0.0312">
        <ele>943.67</ele>
        <time>2013-11-09T12:53:30Z</time>
      </trkpt>
      <trkpt lat="43.07977" lon="-0.0312">
        <ele>943.67</ele>
        <time>2013-11-09T12:53:53Z</time>
      </trkpt>
      <trkpt lat="43.07977" lon="-0.0312">
        <ele>944.15</ele>
        <time>2013-11-09T12:54:13Z</time>
      </trkpt>
      <trkpt lat="43.07978" lon="-0.0312">
        <ele>943.67</ele>
        <time>2013-11-09T12:54:48Z</time>
      </trkpt>
      <trkpt lat="43.0798" lon="-0.03119">
        <ele>943.67</ele>
        <time>2013-11-09T12:55:02Z</time>
      </trkpt>
      <trkpt lat="43.07978" lon="-0.03122">
        <ele>943.67</ele>
        <time>2013-11-09T12:55:14Z</time>
      </trkpt>
      <trkpt lat="43.07978" lon="-0.03123">
        <ele>943.67</ele>
        <time>2013-11-09T12:55:26Z</time>
      </trkpt>
      <trkpt lat="43.07972" lon="-0.0312">
        <ele>943.19</ele>
        <time>2013-11-09T12:55:42Z</time>
      </trkpt>
      <trkpt lat="43.07969" lon="-0.03128">
        <ele>941.75</ele>
        <time>2013-11-09T12:55:54Z</time>
      </trkpt>
      <trkpt lat="43.07974" lon="-0.03133">
        <ele>939.83</ele>
        <time>2013-11-09T12:56:07Z</time>
      </trkpt>
      <trkpt lat="43.07975" lon="-0.03131">
        <ele>938.38</ele>
        <time>2013-11-09T12:56:18Z</time>
      </trkpt>
      <trkpt lat="43.07984" lon="-0.03132">
        <ele>936.94</ele>
        <time>2013-11-09T12:56:34Z</time>
      </trkpt>
      <trkpt lat="43.07982" lon="-0.03139">
        <ele>935.98</ele>
        <time>2013-11-09T12:56:48Z</time>
      </trkpt>
      <trkpt lat="43.07983" lon="-0.0314">
        <ele>933.1</ele>
        <time>2013-11-09T12:57:04Z</time>
      </trkpt>
      <trkpt lat="43.07983" lon="-0.03144">
        <ele>932.14</ele>
        <time>2013-11-09T12:57:18Z</time>
      </trkpt>
      <trkpt lat="43.07991" lon="-0.03148">
        <ele>930.69</ele>
        <time>2013-11-09T12:57:32Z</time>
      </trkpt>
      <trkpt lat="43.07989" lon="-0.03154">
        <ele>928.77</ele>
        <time>2013-11-09T12:57:46Z</time>
      </trkpt>
      <trkpt lat="43.07983" lon="-0.03161">
        <ele>926.85</ele>
        <time>2013-11-09T12:57:59Z</time>
      </trkpt>
      <trkpt lat="43.07979" lon="-0.03166">
        <ele>924.93</ele>
        <time>2013-11-09T12:58:13Z</time>
      </trkpt>
      <trkpt lat="43.07975" lon="-0.0317">
        <ele>923.48</ele>
        <time>2013-11-09T12:58:28Z</time>
      </trkpt>
      <trkpt lat="43.07963" lon="-0.03172">
        <ele>922.52</ele>
        <time>2013-11-09T12:58:43Z</time>
      </trkpt>
      <trkpt lat="43.07959" lon="-0.03181">
        <ele>920.12</ele>
        <time>2013-11-09T12:58:58Z</time>
      </trkpt>
      <trkpt lat="43.07968" lon="-0.03188">
        <ele>918.2</ele>
        <time>2013-11-09T12:59:14Z</time>
      </trkpt>
      <trkpt lat="43.07968" lon="-0.03193">
        <ele>915.79</ele>
        <time>2013-11-09T12:59:30Z</time>
      </trkpt>
      <trkpt lat="43.07967" lon="-0.03201">
        <ele>914.35</ele>
        <time>2013-11-09T12:59:43Z</time>
      </trkpt>
      <trkpt lat="43.07966" lon="-0.03204">
        <ele>911.95</ele>
        <time>2013-11-09T12:59:57Z</time>
      </trkpt>
      <trkpt lat="43.07961" lon="-0.03206">
        <ele>910.99</ele>
        <time>2013-11-09T13:00:10Z</time>
      </trkpt>
      <trkpt lat="43.0797" lon="-0.03212">
        <ele>909.54</ele>
        <time>2013-11-09T13:00:25Z</time>
      </trkpt>
      <trkpt lat="43.07978" lon="-0.03217">
        <ele>907.62</ele>
        <time>2013-11-09T13:00:39Z</time>
      </trkpt>
      <trkpt lat="43.07976" lon="-0.03225">
        <ele>904.74</ele>
        <time>2013-11-09T13:00:52Z</time>
      </trkpt>
      <trkpt lat="43.07981" lon="-0.0323">
        <ele>902.82</ele>
        <time>2013-11-09T13:01:08Z</time>
      </trkpt>
      <trkpt lat="43.07987" lon="-0.03231">
        <ele>901.37</ele>
        <time>2013-11-09T13:01:19Z</time>
      </trkpt>
      <trkpt lat="43.0799" lon="-0.03232">
        <ele>899.45</ele>
        <time>2013-11-09T13:01:32Z</time>
      </trkpt>
      <trkpt lat="43.07994" lon="-0.03232">
        <ele>897.53</ele>
        <time>2013-11-09T13:01:46Z</time>
      </trkpt>
      <trkpt lat="43.07992" lon="-0.03241">
        <ele>895.61</ele>
        <time>2013-11-09T13:01:56Z</time>
      </trkpt>
      <trkpt lat="43.07994" lon="-0.03251">
        <ele>894.16</ele>
        <time>2013-11-09T13:02:08Z</time>
      </trkpt>
      <trkpt lat="43.0799" lon="-0.03254">
        <ele>893.68</ele>
        <time>2013-11-09T13:02:15Z</time>
      </trkpt>
      <trkpt lat="43.07975" lon="-0.03256">
        <ele>892.72</ele>
        <time>2013-11-09T13:02:32Z</time>
      </trkpt>
      <trkpt lat="43.07986" lon="-0.03264">
        <ele>890.32</ele>
        <time>2013-11-09T13:02:48Z</time>
      </trkpt>
      <trkpt lat="43.07999" lon="-0.03261">
        <ele>887.91</ele>
        <time>2013-11-09T13:03:03Z</time>
      </trkpt>
      <trkpt lat="43.08011" lon="-0.03261">
        <ele>885.99</ele>
        <time>2013-11-09T13:03:18Z</time>
      </trkpt>
      <trkpt lat="43.08023" lon="-0.03271">
        <ele>884.07</ele>
        <time>2013-11-09T13:03:34Z</time>
      </trkpt>
      <trkpt lat="43.08021" lon="-0.03272">
        <ele>883.59</ele>
        <time>2013-11-09T13:03:49Z</time>
      </trkpt>
      <trkpt lat="43.08016" lon="-0.0327">
        <ele>884.55</ele>
        <time>2013-11-09T13:04:05Z</time>
      </trkpt>
      <trkpt lat="43.08021" lon="-0.0327">
        <ele>883.59</ele>
        <time>2013-11-09T13:04:13Z</time>
      </trkpt>
      <trkpt lat="43.08032" lon="-0.03261">
        <ele>884.07</ele>
        <time>2013-11-09T13:04:28Z</time>
      </trkpt>
      <trkpt lat="43.08034" lon="-0.03258">
        <ele>884.55</ele>
        <time>2013-11-09T13:04:43Z</time>
      </trkpt>
      <trkpt lat="43.08034" lon="-0.03258">
        <ele>884.55</ele>
        <time>2013-11-09T13:05:09Z</time>
      </trkpt>
      <trkpt lat="43.08051" lon="-0.03256">
        <ele>884.07</ele>
        <time>2013-11-09T13:05:23Z</time>
      </trkpt>
      <trkpt lat="43.08055" lon="-0.03251">
        <ele>884.07</ele>
        <time>2013-11-09T13:05:39Z</time>
      </trkpt>
      <trkpt lat="43.08068" lon="-0.03243">
        <ele>884.07</ele>
        <time>2013-11-09T13:05:49Z</time>
      </trkpt>
      <trkpt lat="43.08075" lon="-0.03243">
        <ele>884.07</ele>
        <time>2013-11-09T13:05:56Z</time>
      </trkpt>
      <trkpt lat="43.08084" lon="-0.03239">
        <ele>883.59</ele>
        <time>2013-11-09T13:06:11Z</time>
      </trkpt>
      <trkpt lat="43.08084" lon="-0.03237">
        <ele>884.07</ele>
        <time>2013-11-09T13:06:14Z</time>
      </trkpt>
      <trkpt lat="43.08093" lon="-0.03222">
        <ele>884.55</ele>
        <time>2013-11-09T13:06:27Z</time>
      </trkpt>
      <trkpt lat="43.08104" lon="-0.03209">
        <ele>885.51</ele>
        <time>2013-11-09T13:06:42Z</time>
      </trkpt>
      <trkpt lat="43.08118" lon="-0.03198">
        <ele>884.07</ele>
        <time>2013-11-09T13:06:59Z</time>
      </trkpt>
      <trkpt lat="43.08132" lon="-0.03191">
        <ele>882.15</ele>
        <time>2013-11-09T13:07:15Z</time>
      </trkpt>
      <trkpt lat="43.08145" lon="-0.03185">
        <ele>880.71</ele>
        <time>2013-11-09T13:07:30Z</time>
      </trkpt>
      <trkpt lat="43.0816" lon="-0.03178">
        <ele>879.26</ele>
        <time>2013-11-09T13:07:45Z</time>
      </trkpt>
      <trkpt lat="43.08177" lon="-0.0317">
        <ele>876.38</ele>
        <time>2013-11-09T13:08:03Z</time>
      </trkpt>
      <trkpt lat="43.08192" lon="-0.03162">
        <ele>873.98</ele>
        <time>2013-11-09T13:08:18Z</time>
      </trkpt>
      <trkpt lat="43.08205" lon="-0.03161">
        <ele>872.05</ele>
        <time>2013-11-09T13:08:34Z</time>
      </trkpt>
      <trkpt lat="43.08216" lon="-0.03157">
        <ele>870.13</ele>
        <time>2013-11-09T13:08:48Z</time>
      </trkpt>
      <trkpt lat="43.08229" lon="-0.03147">
        <ele>868.21</ele>
        <time>2013-11-09T13:09:03Z</time>
      </trkpt>
      <trkpt lat="43.08246" lon="-0.03136">
        <ele>865.32</ele>
        <time>2013-11-09T13:09:20Z</time>
      </trkpt>
      <trkpt lat="43.08256" lon="-0.03135">
        <ele>863.88</ele>
        <time>2013-11-09T13:09:31Z</time>
      </trkpt>
      <trkpt lat="43.08264" lon="-0.03137">
        <ele>862.92</ele>
        <time>2013-11-09T13:09:39Z</time>
      </trkpt>
      <trkpt lat="43.08279" lon="-0.03147">
        <ele>861.48</ele>
        <time>2013-11-09T13:09:55Z</time>
      </trkpt>
      <trkpt lat="43.08293" lon="-0.03139">
        <ele>859.56</ele>
        <time>2013-11-09T13:10:09Z</time>
      </trkpt>
      <trkpt lat="43.08296" lon="-0.03141">
        <ele>860.04</ele>
        <time>2013-11-09T13:10:12Z</time>
      </trkpt>
      <trkpt lat="43.08297" lon="-0.03144">
        <ele>859.56</ele>
        <time>2013-11-09T13:10:14Z</time>
      </trkpt>
      <trkpt lat="43.08295" lon="-0.03148">
        <ele>859.08</ele>
        <time>2013-11-09T13:10:17Z</time>
      </trkpt>
      <trkpt lat="43.08291" lon="-0.03151">
        <ele>859.08</ele>
        <time>2013-11-09T13:10:22Z</time>
      </trkpt>
      <trkpt lat="43.0828" lon="-0.03155">
        <ele>858.11</ele>
        <time>2013-11-09T13:10:35Z</time>
      </trkpt>
      <trkpt lat="43.08267" lon="-0.03169">
        <ele>855.71</ele>
        <time>2013-11-09T13:10:49Z</time>
      </trkpt>
      <trkpt lat="43.08265" lon="-0.03173">
        <ele>855.71</ele>
        <time>2013-11-09T13:10:52Z</time>
      </trkpt>
      <trkpt lat="43.08252" lon="-0.03188">
        <ele>853.79</ele>
        <time>2013-11-09T13:11:07Z</time>
      </trkpt>
      <trkpt lat="43.08244" lon="-0.03203">
        <ele>851.87</ele>
        <time>2013-11-09T13:11:20Z</time>
      </trkpt>
      <trkpt lat="43.0824" lon="-0.03215">
        <ele>849.94</ele>
        <time>2013-11-09T13:11:30Z</time>
      </trkpt>
      <trkpt lat="43.08235" lon="-0.03222">
        <ele>849.46</ele>
        <time>2013-11-09T13:11:37Z</time>
      </trkpt>
      <trkpt lat="43.08227" lon="-0.03239">
        <ele>847.06</ele>
        <time>2013-11-09T13:11:51Z</time>
      </trkpt>
      <trkpt lat="43.08226" lon="-0.03241">
        <ele>847.06</ele>
        <time>2013-11-09T13:11:53Z</time>
      </trkpt>
      <trkpt lat="43.08216" lon="-0.03255">
        <ele>844.18</ele>
        <time>2013-11-09T13:12:06Z</time>
      </trkpt>
      <trkpt lat="43.08206" lon="-0.03272">
        <ele>842.73</ele>
        <time>2013-11-09T13:12:20Z</time>
      </trkpt>
      <trkpt lat="43.08203" lon="-0.03275">
        <ele>842.73</ele>
        <time>2013-11-09T13:12:24Z</time>
      </trkpt>
      <trkpt lat="43.08194" lon="-0.03283">
        <ele>840.81</ele>
        <time>2013-11-09T13:12:36Z</time>
      </trkpt>
      <trkpt lat="43.08188" lon="-0.03288">
        <ele>840.81</ele>
        <time>2013-11-09T13:12:42Z</time>
      </trkpt>
      <trkpt lat="43.08187" lon="-0.03294">
        <ele>840.33</ele>
        <time>2013-11-09T13:12:46Z</time>
      </trkpt>
      <trkpt lat="43.08199" lon="-0.03295">
        <ele>839.37</ele>
        <time>2013-11-09T13:13:00Z</time>
      </trkpt>
      <trkpt lat="43.08209" lon="-0.0329">
        <ele>839.37</ele>
        <time>2013-11-09T13:13:09Z</time>
      </trkpt>
      <trkpt lat="43.08216" lon="-0.03287">
        <ele>838.41</ele>
        <time>2013-11-09T13:13:15Z</time>
      </trkpt>
      <trkpt lat="43.08232" lon="-0.03287">
        <ele>836</ele>
        <time>2013-11-09T13:13:30Z</time>
      </trkpt>
      <trkpt lat="43.08242" lon="-0.03288">
        <ele>834.08</ele>
        <time>2013-11-09T13:13:44Z</time>
      </trkpt>
      <trkpt lat="43.08253" lon="-0.03288">
        <ele>831.68</ele>
        <time>2013-11-09T13:14:00Z</time>
      </trkpt>
      <trkpt lat="43.08276" lon="-0.03286">
        <ele>829.76</ele>
        <time>2013-11-09T13:14:14Z</time>
      </trkpt>
      <trkpt lat="43.08298" lon="-0.0328">
        <ele>827.83</ele>
        <time>2013-11-09T13:14:30Z</time>
      </trkpt>
      <trkpt lat="43.08314" lon="-0.0327">
        <ele>825.43</ele>
        <time>2013-11-09T13:14:48Z</time>
      </trkpt>
      <trkpt lat="43.08316" lon="-0.03268">
        <ele>825.43</ele>
        <time>2013-11-09T13:14:54Z</time>
      </trkpt>
      <trkpt lat="43.08326" lon="-0.03262">
        <ele>824.47</ele>
        <time>2013-11-09T13:15:04Z</time>
      </trkpt>
      <trkpt lat="43.08343" lon="-0.03249">
        <ele>821.58</ele>
        <time>2013-11-09T13:15:22Z</time>
      </trkpt>
      <trkpt lat="43.08353" lon="-0.03242">
        <ele>820.14</ele>
        <time>2013-11-09T13:15:33Z</time>
      </trkpt>
      <trkpt lat="43.08364" lon="-0.03229">
        <ele>817.74</ele>
        <time>2013-11-09T13:15:48Z</time>
      </trkpt>
      <trkpt lat="43.0837" lon="-0.03222">
        <ele>816.3</ele>
        <time>2013-11-09T13:15:55Z</time>
      </trkpt>
      <trkpt lat="43.0838" lon="-0.03207">
        <ele>813.89</ele>
        <time>2013-11-09T13:16:09Z</time>
      </trkpt>
      <trkpt lat="43.0839" lon="-0.03194">
        <ele>811.97</ele>
        <time>2013-11-09T13:16:23Z</time>
      </trkpt>
      <trkpt lat="43.08392" lon="-0.0319">
        <ele>811.01</ele>
        <time>2013-11-09T13:16:27Z</time>
      </trkpt>
      <trkpt lat="43.08399" lon="-0.0318">
        <ele>810.05</ele>
        <time>2013-11-09T13:16:37Z</time>
      </trkpt>
      <trkpt lat="43.0841" lon="-0.03163">
        <ele>807.64</ele>
        <time>2013-11-09T13:16:53Z</time>
      </trkpt>
      <trkpt lat="43.0842" lon="-0.03151">
        <ele>805.24</ele>
        <time>2013-11-09T13:17:07Z</time>
      </trkpt>
      <trkpt lat="43.08424" lon="-0.03147">
        <ele>804.76</ele>
        <time>2013-11-09T13:17:12Z</time>
      </trkpt>
      <trkpt lat="43.08435" lon="-0.03127">
        <ele>802.84</ele>
        <time>2013-11-09T13:17:29Z</time>
      </trkpt>
      <trkpt lat="43.08439" lon="-0.03108">
        <ele>800.92</ele>
        <time>2013-11-09T13:17:44Z</time>
      </trkpt>
      <trkpt lat="43.08439" lon="-0.03106">
        <ele>800.92</ele>
        <time>2013-11-09T13:17:46Z</time>
      </trkpt>
      <trkpt lat="43.08447" lon="-0.03096">
        <ele>798.99</ele>
        <time>2013-11-09T13:17:57Z</time>
      </trkpt>
      <trkpt lat="43.08448" lon="-0.03112">
        <ele>798.51</ele>
        <time>2013-11-09T13:18:14Z</time>
      </trkpt>
      <trkpt lat="43.08448" lon="-0.03122">
        <ele>797.55</ele>
        <time>2013-11-09T13:18:25Z</time>
      </trkpt>
      <trkpt lat="43.08447" lon="-0.03135">
        <ele>795.63</ele>
        <time>2013-11-09T13:18:39Z</time>
      </trkpt>
      <trkpt lat="43.08443" lon="-0.03152">
        <ele>794.67</ele>
        <time>2013-11-09T13:18:50Z</time>
      </trkpt>
      <trkpt lat="43.0844" lon="-0.03165">
        <ele>793.71</ele>
        <time>2013-11-09T13:18:59Z</time>
      </trkpt>
      <trkpt lat="43.0844" lon="-0.03173">
        <ele>792.74</ele>
        <time>2013-11-09T13:19:04Z</time>
      </trkpt>
      <trkpt lat="43.08434" lon="-0.0319">
        <ele>790.82</ele>
        <time>2013-11-09T13:19:16Z</time>
      </trkpt>
      <trkpt lat="43.08432" lon="-0.03204">
        <ele>789.38</ele>
        <time>2013-11-09T13:19:27Z</time>
      </trkpt>
      <trkpt lat="43.08425" lon="-0.0323">
        <ele>787.46</ele>
        <time>2013-11-09T13:19:41Z</time>
      </trkpt>
      <trkpt lat="43.08418" lon="-0.03244">
        <ele>786.5</ele>
        <time>2013-11-09T13:19:52Z</time>
      </trkpt>
      <trkpt lat="43.08415" lon="-0.03256">
        <ele>785.53</ele>
        <time>2013-11-09T13:19:59Z</time>
      </trkpt>
      <trkpt lat="43.08413" lon="-0.03258">
        <ele>785.53</ele>
        <time>2013-11-09T13:20:01Z</time>
      </trkpt>
      <trkpt lat="43.08404" lon="-0.0328">
        <ele>784.09</ele>
        <time>2013-11-09T13:20:16Z</time>
      </trkpt>
      <trkpt lat="43.084" lon="-0.03286">
        <ele>784.09</ele>
        <time>2013-11-09T13:20:21Z</time>
      </trkpt>
      <trkpt lat="43.08391" lon="-0.03302">
        <ele>781.69</ele>
        <time>2013-11-09T13:20:34Z</time>
      </trkpt>
      <trkpt lat="43.08383" lon="-0.03316">
        <ele>780.25</ele>
        <time>2013-11-09T13:20:47Z</time>
      </trkpt>
      <trkpt lat="43.08377" lon="-0.03328">
        <ele>778.81</ele>
        <time>2013-11-09T13:20:57Z</time>
      </trkpt>
      <trkpt lat="43.08369" lon="-0.03345">
        <ele>776.88</ele>
        <time>2013-11-09T13:21:11Z</time>
      </trkpt>
      <trkpt lat="43.08362" lon="-0.03359">
        <ele>775.44</ele>
        <time>2013-11-09T13:21:23Z</time>
      </trkpt>
      <trkpt lat="43.08352" lon="-0.03364">
        <ele>774.48</ele>
        <time>2013-11-09T13:21:33Z</time>
      </trkpt>
      <trkpt lat="43.08351" lon="-0.03368">
        <ele>774.48</ele>
        <time>2013-11-09T13:21:36Z</time>
      </trkpt>
      <trkpt lat="43.08354" lon="-0.03375">
        <ele>774</ele>
        <time>2013-11-09T13:21:41Z</time>
      </trkpt>
      <trkpt lat="43.08368" lon="-0.03367">
        <ele>772.08</ele>
        <time>2013-11-09T13:21:56Z</time>
      </trkpt>
      <trkpt lat="43.08384" lon="-0.03353">
        <ele>770.15</ele>
        <time>2013-11-09T13:22:14Z</time>
      </trkpt>
      <trkpt lat="43.08401" lon="-0.03337">
        <ele>767.75</ele>
        <time>2013-11-09T13:22:33Z</time>
      </trkpt>
      <trkpt lat="43.08418" lon="-0.03325">
        <ele>765.35</ele>
        <time>2013-11-09T13:22:49Z</time>
      </trkpt>
      <trkpt lat="43.08432" lon="-0.0331">
        <ele>762.94</ele>
        <time>2013-11-09T13:23:07Z</time>
      </trkpt>
      <trkpt lat="43.08449" lon="-0.03299">
        <ele>760.54</ele>
        <time>2013-11-09T13:23:23Z</time>
      </trkpt>
      <trkpt lat="43.08465" lon="-0.03284">
        <ele>758.62</ele>
        <time>2013-11-09T13:23:41Z</time>
      </trkpt>
      <trkpt lat="43.0848" lon="-0.0327">
        <ele>756.21</ele>
        <time>2013-11-09T13:23:59Z</time>
      </trkpt>
      <trkpt lat="43.08488" lon="-0.03261">
        <ele>753.81</ele>
        <time>2013-11-09T13:24:14Z</time>
      </trkpt>
      <trkpt lat="43.08496" lon="-0.0325">
        <ele>751.41</ele>
        <time>2013-11-09T13:24:28Z</time>
      </trkpt>
      <trkpt lat="43.08512" lon="-0.03242">
        <ele>749.49</ele>
        <time>2013-11-09T13:24:43Z</time>
      </trkpt>
      <trkpt lat="43.08529" lon="-0.03228">
        <ele>747.56</ele>
        <time>2013-11-09T13:24:57Z</time>
      </trkpt>
      <trkpt lat="43.08539" lon="-0.03217">
        <ele>745.16</ele>
        <time>2013-11-09T13:25:12Z</time>
      </trkpt>
      <trkpt lat="43.08554" lon="-0.032">
        <ele>742.76</ele>
        <time>2013-11-09T13:25:27Z</time>
      </trkpt>
      <trkpt lat="43.08562" lon="-0.03189">
        <ele>741.79</ele>
        <time>2013-11-09T13:25:36Z</time>
      </trkpt>
      <trkpt lat="43.0857" lon="-0.0317">
        <ele>739.39</ele>
        <time>2013-11-09T13:25:51Z</time>
      </trkpt>
      <trkpt lat="43.08577" lon="-0.03149">
        <ele>736.99</ele>
        <time>2013-11-09T13:26:07Z</time>
      </trkpt>
      <trkpt lat="43.08578" lon="-0.03138">
        <ele>735.55</ele>
        <time>2013-11-09T13:26:16Z</time>
      </trkpt>
      <trkpt lat="43.0858" lon="-0.03127">
        <ele>735.07</ele>
        <time>2013-11-09T13:26:24Z</time>
      </trkpt>
      <trkpt lat="43.08584" lon="-0.03105">
        <ele>732.18</ele>
        <time>2013-11-09T13:26:39Z</time>
      </trkpt>
      <trkpt lat="43.08586" lon="-0.03082">
        <ele>730.26</ele>
        <time>2013-11-09T13:26:53Z</time>
      </trkpt>
      <trkpt lat="43.08587" lon="-0.03064">
        <ele>728.34</ele>
        <time>2013-11-09T13:27:06Z</time>
      </trkpt>
      <trkpt lat="43.08585" lon="-0.03046">
        <ele>725.93</ele>
        <time>2013-11-09T13:27:22Z</time>
      </trkpt>
      <trkpt lat="43.08581" lon="-0.03026">
        <ele>724.01</ele>
        <time>2013-11-09T13:27:35Z</time>
      </trkpt>
      <trkpt lat="43.08571" lon="-0.03009">
        <ele>722.57</ele>
        <time>2013-11-09T13:27:48Z</time>
      </trkpt>
      <trkpt lat="43.08566" lon="-0.02995">
        <ele>721.61</ele>
        <time>2013-11-09T13:28:03Z</time>
      </trkpt>
      <trkpt lat="43.08562" lon="-0.02982">
        <ele>719.2</ele>
        <time>2013-11-09T13:28:17Z</time>
      </trkpt>
      <trkpt lat="43.08557" lon="-0.02965">
        <ele>717.76</ele>
        <time>2013-11-09T13:28:33Z</time>
      </trkpt>
      <trkpt lat="43.08562" lon="-0.0296">
        <ele>716.8</ele>
        <time>2013-11-09T13:28:48Z</time>
      </trkpt>
      <trkpt lat="43.08562" lon="-0.02961">
        <ele>716.32</ele>
        <time>2013-11-09T13:28:49Z</time>
      </trkpt>
      <trkpt lat="43.08567" lon="-0.02971">
        <ele>716.32</ele>
        <time>2013-11-09T13:28:58Z</time>
      </trkpt>
      <trkpt lat="43.08568" lon="-0.02974">
        <ele>715.84</ele>
        <time>2013-11-09T13:29:01Z</time>
      </trkpt>
      <trkpt lat="43.08575" lon="-0.02992">
        <ele>714.88</ele>
        <time>2013-11-09T13:29:17Z</time>
      </trkpt>
      <trkpt lat="43.08575" lon="-0.02992">
        <ele>712.47</ele>
        <time>2013-11-09T13:29:34Z</time>
      </trkpt>
      <trkpt lat="43.08582" lon="-0.03023">
        <ele>709.59</ele>
        <time>2013-11-09T13:29:52Z</time>
      </trkpt>
      <trkpt lat="43.08599" lon="-0.03043">
        <ele>707.19</ele>
        <time>2013-11-09T13:30:08Z</time>
      </trkpt>
      <trkpt lat="43.08616" lon="-0.03053">
        <ele>704.78</ele>
        <time>2013-11-09T13:30:22Z</time>
      </trkpt>
      <trkpt lat="43.0863" lon="-0.03066">
        <ele>702.86</ele>
        <time>2013-11-09T13:30:35Z</time>
      </trkpt>
      <trkpt lat="43.08641" lon="-0.0308">
        <ele>700.94</ele>
        <time>2013-11-09T13:30:48Z</time>
      </trkpt>
      <trkpt lat="43.08654" lon="-0.03096">
        <ele>699.5</ele>
        <time>2013-11-09T13:31:00Z</time>
      </trkpt>
      <trkpt lat="43.08665" lon="-0.03113">
        <ele>697.57</ele>
        <time>2013-11-09T13:31:12Z</time>
      </trkpt>
      <trkpt lat="43.08666" lon="-0.03114">
        <ele>697.57</ele>
        <time>2013-11-09T13:31:13Z</time>
      </trkpt>
      <trkpt lat="43.08669" lon="-0.03122">
        <ele>696.61</ele>
        <time>2013-11-09T13:31:22Z</time>
      </trkpt>
      <trkpt lat="43.08671" lon="-0.03134">
        <ele>695.65</ele>
        <time>2013-11-09T13:31:30Z</time>
      </trkpt>
      <trkpt lat="43.08673" lon="-0.03139">
        <ele>694.69</ele>
        <time>2013-11-09T13:31:34Z</time>
      </trkpt>
      <trkpt lat="43.08676" lon="-0.03148">
        <ele>693.73</ele>
        <time>2013-11-09T13:31:41Z</time>
      </trkpt>
      <trkpt lat="43.08677" lon="-0.03155">
        <ele>692.77</ele>
        <time>2013-11-09T13:31:45Z</time>
      </trkpt>
      <trkpt lat="43.08681" lon="-0.03177">
        <ele>690.84</ele>
        <time>2013-11-09T13:32:01Z</time>
      </trkpt>
      <trkpt lat="43.08689" lon="-0.03196">
        <ele>688.92</ele>
        <time>2013-11-09T13:32:16Z</time>
      </trkpt>
      <trkpt lat="43.08692" lon="-0.0321">
        <ele>687</ele>
        <time>2013-11-09T13:32:28Z</time>
      </trkpt>
      <trkpt lat="43.08691" lon="-0.0323">
        <ele>685.56</ele>
        <time>2013-11-09T13:32:42Z</time>
      </trkpt>
      <trkpt lat="43.08688" lon="-0.03241">
        <ele>684.12</ele>
        <time>2013-11-09T13:32:54Z</time>
      </trkpt>
      <trkpt lat="43.08687" lon="-0.03253">
        <ele>682.67</ele>
        <time>2013-11-09T13:33:00Z</time>
      </trkpt>
      <trkpt lat="43.08681" lon="-0.03267">
        <ele>682.19</ele>
        <time>2013-11-09T13:33:08Z</time>
      </trkpt>
      <trkpt lat="43.08673" lon="-0.03279">
        <ele>681.23</ele>
        <time>2013-11-09T13:33:18Z</time>
      </trkpt>
      <trkpt lat="43.08668" lon="-0.03284">
        <ele>680.27</ele>
        <time>2013-11-09T13:33:24Z</time>
      </trkpt>
      <trkpt lat="43.08666" lon="-0.03295">
        <ele>679.79</ele>
        <time>2013-11-09T13:33:31Z</time>
      </trkpt>
      <trkpt lat="43.08676" lon="-0.03297">
        <ele>676.91</ele>
        <time>2013-11-09T13:33:46Z</time>
      </trkpt>
      <trkpt lat="43.08681" lon="-0.03292">
        <ele>674.02</ele>
        <time>2013-11-09T13:34:03Z</time>
      </trkpt>
      <trkpt lat="43.08689" lon="-0.03285">
        <ele>671.14</ele>
        <time>2013-11-09T13:34:21Z</time>
      </trkpt>
      <trkpt lat="43.08718" lon="-0.03282">
        <ele>668.73</ele>
        <time>2013-11-09T13:34:36Z</time>
      </trkpt>
      <trkpt lat="43.08745" lon="-0.03277">
        <ele>667.29</ele>
        <time>2013-11-09T13:34:50Z</time>
      </trkpt>
      <trkpt lat="43.08763" lon="-0.03281">
        <ele>665.37</ele>
        <time>2013-11-09T13:35:05Z</time>
      </trkpt>
      <trkpt lat="43.08779" lon="-0.03285">
        <ele>663.45</ele>
        <time>2013-11-09T13:35:19Z</time>
      </trkpt>
      <trkpt lat="43.08786" lon="-0.03291">
        <ele>662.49</ele>
        <time>2013-11-09T13:35:30Z</time>
      </trkpt>
      <trkpt lat="43.08797" lon="-0.03297">
        <ele>661.04</ele>
        <time>2013-11-09T13:35:41Z</time>
      </trkpt>
      <trkpt lat="43.08816" lon="-0.03303">
        <ele>659.12</ele>
        <time>2013-11-09T13:35:56Z</time>
      </trkpt>
      <trkpt lat="43.08824" lon="-0.03308">
        <ele>658.16</ele>
        <time>2013-11-09T13:36:04Z</time>
      </trkpt>
      <trkpt lat="43.08826" lon="-0.03318">
        <ele>657.68</ele>
        <time>2013-11-09T13:36:10Z</time>
      </trkpt>
      <trkpt lat="43.0881" lon="-0.0332">
        <ele>656.24</ele>
        <time>2013-11-09T13:36:25Z</time>
      </trkpt>
      <trkpt lat="43.08802" lon="-0.03324">
        <ele>655.76</ele>
        <time>2013-11-09T13:36:31Z</time>
      </trkpt>
      <trkpt lat="43.08789" lon="-0.03334">
        <ele>654.31</ele>
        <time>2013-11-09T13:36:45Z</time>
      </trkpt>
      <trkpt lat="43.08785" lon="-0.03349">
        <ele>652.39</ele>
        <time>2013-11-09T13:36:58Z</time>
      </trkpt>
      <trkpt lat="43.08788" lon="-0.03362">
        <ele>650.95</ele>
        <time>2013-11-09T13:37:09Z</time>
      </trkpt>
      <trkpt lat="43.08793" lon="-0.03371">
        <ele>649.51</ele>
        <time>2013-11-09T13:37:21Z</time>
      </trkpt>
      <trkpt lat="43.08798" lon="-0.03378">
        <ele>647.59</ele>
        <time>2013-11-09T13:37:33Z</time>
      </trkpt>
      <trkpt lat="43.08798" lon="-0.03383">
        <ele>646.14</ele>
        <time>2013-11-09T13:37:47Z</time>
      </trkpt>
      <trkpt lat="43.08799" lon="-0.03411">
        <ele>644.22</ele>
        <time>2013-11-09T13:37:59Z</time>
      </trkpt>
      <trkpt lat="43.08788" lon="-0.03429">
        <ele>642.3</ele>
        <time>2013-11-09T13:38:13Z</time>
      </trkpt>
      <trkpt lat="43.0878" lon="-0.03443">
        <ele>641.82</ele>
        <time>2013-11-09T13:38:23Z</time>
      </trkpt>
      <trkpt lat="43.08776" lon="-0.03451">
        <ele>639.89</ele>
        <time>2013-11-09T13:38:29Z</time>
      </trkpt>
      <trkpt lat="43.08772" lon="-0.03469">
        <ele>638.45</ele>
        <time>2013-11-09T13:38:41Z</time>
      </trkpt>
      <trkpt lat="43.08759" lon="-0.03484">
        <ele>637.01</ele>
        <time>2013-11-09T13:38:55Z</time>
      </trkpt>
      <trkpt lat="43.08758" lon="-0.03484">
        <ele>636.53</ele>
        <time>2013-11-09T13:38:56Z</time>
      </trkpt>
      <trkpt lat="43.08742" lon="-0.0349">
        <ele>635.57</ele>
        <time>2013-11-09T13:39:11Z</time>
      </trkpt>
      <trkpt lat="43.08728" lon="-0.03492">
        <ele>633.17</ele>
        <time>2013-11-09T13:39:24Z</time>
      </trkpt>
      <trkpt lat="43.08716" lon="-0.03492">
        <ele>631.72</ele>
        <time>2013-11-09T13:39:39Z</time>
      </trkpt>
      <trkpt lat="43.08704" lon="-0.03494">
        <ele>629.32</ele>
        <time>2013-11-09T13:39:52Z</time>
      </trkpt>
      <trkpt lat="43.08696" lon="-0.03497">
        <ele>627.4</ele>
        <time>2013-11-09T13:40:07Z</time>
      </trkpt>
      <trkpt lat="43.08672" lon="-0.03509">
        <ele>624.51</ele>
        <time>2013-11-09T13:40:23Z</time>
      </trkpt>
      <trkpt lat="43.08664" lon="-0.03512">
        <ele>622.11</ele>
        <time>2013-11-09T13:40:39Z</time>
      </trkpt>
      <trkpt lat="43.08647" lon="-0.03516">
        <ele>620.67</ele>
        <time>2013-11-09T13:40:54Z</time>
      </trkpt>
      <trkpt lat="43.08639" lon="-0.03517">
        <ele>619.23</ele>
        <time>2013-11-09T13:41:09Z</time>
      </trkpt>
      <trkpt lat="43.08619" lon="-0.03524">
        <ele>617.3</ele>
        <time>2013-11-09T13:41:24Z</time>
      </trkpt>
      <trkpt lat="43.08598" lon="-0.03538">
        <ele>615.86</ele>
        <time>2013-11-09T13:41:38Z</time>
      </trkpt>
      <trkpt lat="43.08588" lon="-0.03549">
        <ele>614.9</ele>
        <time>2013-11-09T13:41:53Z</time>
      </trkpt>
      <trkpt lat="43.08573" lon="-0.03559">
        <ele>612.98</ele>
        <time>2013-11-09T13:42:06Z</time>
      </trkpt>
      <trkpt lat="43.08561" lon="-0.03569">
        <ele>611.06</ele>
        <time>2013-11-09T13:42:21Z</time>
      </trkpt>
      <trkpt lat="43.08547" lon="-0.03584">
        <ele>609.13</ele>
        <time>2013-11-09T13:42:35Z</time>
      </trkpt>
      <trkpt lat="43.08536" lon="-0.03591">
        <ele>607.69</ele>
        <time>2013-11-09T13:42:48Z</time>
      </trkpt>
      <trkpt lat="43.08516" lon="-0.0361">
        <ele>606.73</ele>
        <time>2013-11-09T13:43:02Z</time>
      </trkpt>
      <trkpt lat="43.08504" lon="-0.03625">
        <ele>605.29</ele>
        <time>2013-11-09T13:43:12Z</time>
      </trkpt>
      <trkpt lat="43.085" lon="-0.03631">
        <ele>604.81</ele>
        <time>2013-11-09T13:43:17Z</time>
      </trkpt>
      <trkpt lat="43.08491" lon="-0.03641">
        <ele>603.85</ele>
        <time>2013-11-09T13:43:26Z</time>
      </trkpt>
      <trkpt lat="43.08479" lon="-0.03657">
        <ele>602.4</ele>
        <time>2013-11-09T13:43:41Z</time>
      </trkpt>
      <trkpt lat="43.08478" lon="-0.03661">
        <ele>601.92</ele>
        <time>2013-11-09T13:43:44Z</time>
      </trkpt>
      <trkpt lat="43.08473" lon="-0.03669">
        <ele>601.44</ele>
        <time>2013-11-09T13:43:51Z</time>
      </trkpt>
      <trkpt lat="43.08467" lon="-0.03679">
        <ele>600.48</ele>
        <time>2013-11-09T13:43:58Z</time>
      </trkpt>
      <trkpt lat="43.0846" lon="-0.037">
        <ele>598.56</ele>
        <time>2013-11-09T13:44:13Z</time>
      </trkpt>
      <trkpt lat="43.08457" lon="-0.03719">
        <ele>597.12</ele>
        <time>2013-11-09T13:44:26Z</time>
      </trkpt>
      <trkpt lat="43.08453" lon="-0.03737">
        <ele>595.19</ele>
        <time>2013-11-09T13:44:40Z</time>
      </trkpt>
      <trkpt lat="43.08449" lon="-0.03754">
        <ele>593.75</ele>
        <time>2013-11-09T13:44:53Z</time>
      </trkpt>
      <trkpt lat="43.08447" lon="-0.03758">
        <ele>593.75</ele>
        <time>2013-11-09T13:44:56Z</time>
      </trkpt>
      <trkpt lat="43.08439" lon="-0.0377">
        <ele>591.35</ele>
        <time>2013-11-09T13:45:08Z</time>
      </trkpt>
      <trkpt lat="43.08438" lon="-0.03773">
        <ele>590.87</ele>
        <time>2013-11-09T13:45:10Z</time>
      </trkpt>
      <trkpt lat="43.08425" lon="-0.03787">
        <ele>588.46</ele>
        <time>2013-11-09T13:45:25Z</time>
      </trkpt>
      <trkpt lat="43.08422" lon="-0.03798">
        <ele>586.54</ele>
        <time>2013-11-09T13:45:35Z</time>
      </trkpt>
      <trkpt lat="43.08413" lon="-0.0381">
        <ele>585.1</ele>
        <time>2013-11-09T13:45:47Z</time>
      </trkpt>
      <trkpt lat="43.08405" lon="-0.03818">
        <ele>582.7</ele>
        <time>2013-11-09T13:46:02Z</time>
      </trkpt>
      <trkpt lat="43.08389" lon="-0.0383">
        <ele>580.29</ele>
        <time>2013-11-09T13:46:17Z</time>
      </trkpt>
      <trkpt lat="43.08375" lon="-0.03846">
        <ele>578.37</ele>
        <time>2013-11-09T13:46:33Z</time>
      </trkpt>
      <trkpt lat="43.08364" lon="-0.03855">
        <ele>576.93</ele>
        <time>2013-11-09T13:46:48Z</time>
      </trkpt>
      <trkpt lat="43.08351" lon="-0.03868">
        <ele>573.56</ele>
        <time>2013-11-09T13:47:03Z</time>
      </trkpt>
      <trkpt lat="43.08342" lon="-0.03875">
        <ele>571.16</ele>
        <time>2013-11-09T13:47:17Z</time>
      </trkpt>
      <trkpt lat="43.0834" lon="-0.03878">
        <ele>571.16</ele>
        <time>2013-11-09T13:47:21Z</time>
      </trkpt>
      <trkpt lat="43.08332" lon="-0.03888">
        <ele>570.2</ele>
        <time>2013-11-09T13:47:36Z</time>
      </trkpt>
      <trkpt lat="43.08321" lon="-0.03896">
        <ele>568.76</ele>
        <time>2013-11-09T13:47:50Z</time>
      </trkpt>
      <trkpt lat="43.08318" lon="-0.03907">
        <ele>565.87</ele>
        <time>2013-11-09T13:48:06Z</time>
      </trkpt>
      <trkpt lat="43.08315" lon="-0.03912">
        <ele>563.47</ele>
        <time>2013-11-09T13:48:22Z</time>
      </trkpt>
      <trkpt lat="43.08311" lon="-0.03924">
        <ele>560.59</ele>
        <time>2013-11-09T13:48:37Z</time>
      </trkpt>
      <trkpt lat="43.08311" lon="-0.03928">
        <ele>559.14</ele>
        <time>2013-11-09T13:48:45Z</time>
      </trkpt>
      <trkpt lat="43.08319" lon="-0.03943">
        <ele>557.22</ele>
        <time>2013-11-09T13:49:00Z</time>
      </trkpt>
      <trkpt lat="43.08324" lon="-0.03947">
        <ele>555.78</ele>
        <time>2013-11-09T13:49:13Z</time>
      </trkpt>
      <trkpt lat="43.08334" lon="-0.03951">
        <ele>554.34</ele>
        <time>2013-11-09T13:49:25Z</time>
      </trkpt>
      <trkpt lat="43.08337" lon="-0.03953">
        <ele>553.86</ele>
        <time>2013-11-09T13:49:28Z</time>
      </trkpt>
      <trkpt lat="43.08345" lon="-0.0396">
        <ele>552.41</ele>
        <time>2013-11-09T13:49:41Z</time>
      </trkpt>
      <trkpt lat="43.08352" lon="-0.03959">
        <ele>550.49</ele>
        <time>2013-11-09T13:49:49Z</time>
      </trkpt>
      <trkpt lat="43.08353" lon="-0.03958">
        <ele>549.05</ele>
        <time>2013-11-09T13:50:04Z</time>
      </trkpt>
      <trkpt lat="43.08361" lon="-0.03958">
        <ele>546.65</ele>
        <time>2013-11-09T13:50:18Z</time>
      </trkpt>
      <trkpt lat="43.08375" lon="-0.03955">
        <ele>544.24</ele>
        <time>2013-11-09T13:50:35Z</time>
      </trkpt>
      <trkpt lat="43.08385" lon="-0.03949">
        <ele>541.36</ele>
        <time>2013-11-09T13:50:51Z</time>
      </trkpt>
      <trkpt lat="43.08397" lon="-0.03943">
        <ele>538.48</ele>
        <time>2013-11-09T13:51:06Z</time>
      </trkpt>
      <trkpt lat="43.08407" lon="-0.03943">
        <ele>535.59</ele>
        <time>2013-11-09T13:51:22Z</time>
      </trkpt>
      <trkpt lat="43.08414" lon="-0.03942">
        <ele>534.15</ele>
        <time>2013-11-09T13:51:32Z</time>
      </trkpt>
      <trkpt lat="43.08419" lon="-0.03938">
        <ele>531.27</ele>
        <time>2013-11-09T13:51:46Z</time>
      </trkpt>
      <trkpt lat="43.08432" lon="-0.03935">
        <ele>528.86</ele>
        <time>2013-11-09T13:52:03Z</time>
      </trkpt>
      <trkpt lat="43.08441" lon="-0.03934">
        <ele>525.5</ele>
        <time>2013-11-09T13:52:20Z</time>
      </trkpt>
      <trkpt lat="43.08457" lon="-0.03928">
        <ele>523.58</ele>
        <time>2013-11-09T13:52:37Z</time>
      </trkpt>
      <trkpt lat="43.08466" lon="-0.0393">
        <ele>521.17</ele>
        <time>2013-11-09T13:52:53Z</time>
      </trkpt>
      <trkpt lat="43.08473" lon="-0.03927">
        <ele>518.77</ele>
        <time>2013-11-09T13:53:06Z</time>
      </trkpt>
      <trkpt lat="43.0848" lon="-0.03925">
        <ele>516.37</ele>
        <time>2013-11-09T13:53:21Z</time>
      </trkpt>
      <trkpt lat="43.08491" lon="-0.03923">
        <ele>513.96</ele>
        <time>2013-11-09T13:53:35Z</time>
      </trkpt>
      <trkpt lat="43.08501" lon="-0.0392">
        <ele>511.08</ele>
        <time>2013-11-09T13:53:50Z</time>
      </trkpt>
      <trkpt lat="43.08511" lon="-0.03917">
        <ele>508.67</ele>
        <time>2013-11-09T13:54:04Z</time>
      </trkpt>
      <trkpt lat="43.08519" lon="-0.03916">
        <ele>506.27</ele>
        <time>2013-11-09T13:54:18Z</time>
      </trkpt>
      <trkpt lat="43.08527" lon="-0.03915">
        <ele>503.39</ele>
        <time>2013-11-09T13:54:32Z</time>
      </trkpt>
      <trkpt lat="43.08537" lon="-0.03915">
        <ele>501.46</ele>
        <time>2013-11-09T13:54:47Z</time>
      </trkpt>
      <trkpt lat="43.08553" lon="-0.03913">
        <ele>498.58</ele>
        <time>2013-11-09T13:55:00Z</time>
      </trkpt>
      <trkpt lat="43.08568" lon="-0.03915">
        <ele>496.66</ele>
        <time>2013-11-09T13:55:14Z</time>
      </trkpt>
      <trkpt lat="43.08578" lon="-0.0392">
        <ele>494.26</ele>
        <time>2013-11-09T13:55:27Z</time>
      </trkpt>
      <trkpt lat="43.08578" lon="-0.03924">
        <ele>492.33</ele>
        <time>2013-11-09T13:55:40Z</time>
      </trkpt>
      <trkpt lat="43.08578" lon="-0.0393">
        <ele>490.41</ele>
        <time>2013-11-09T13:55:55Z</time>
      </trkpt>
      <trkpt lat="43.08575" lon="-0.03935">
        <ele>487.53</ele>
        <time>2013-11-09T13:56:10Z</time>
      </trkpt>
      <trkpt lat="43.08564" lon="-0.03949">
        <ele>485.6</ele>
        <time>2013-11-09T13:56:25Z</time>
      </trkpt>
      <trkpt lat="43.08557" lon="-0.0396">
        <ele>483.2</ele>
        <time>2013-11-09T13:56:39Z</time>
      </trkpt>
      <trkpt lat="43.08553" lon="-0.03967">
        <ele>481.28</ele>
        <time>2013-11-09T13:56:52Z</time>
      </trkpt>
      <trkpt lat="43.08545" lon="-0.03976">
        <ele>479.84</ele>
        <time>2013-11-09T13:57:06Z</time>
      </trkpt>
      <trkpt lat="43.0854" lon="-0.03986">
        <ele>477.91</ele>
        <time>2013-11-09T13:57:20Z</time>
      </trkpt>
      <trkpt lat="43.08537" lon="-0.03999">
        <ele>475.99</ele>
        <time>2013-11-09T13:57:33Z</time>
      </trkpt>
      <trkpt lat="43.08532" lon="-0.04006">
        <ele>473.11</ele>
        <time>2013-11-09T13:57:46Z</time>
      </trkpt>
      <trkpt lat="43.08525" lon="-0.0402">
        <ele>471.18</ele>
        <time>2013-11-09T13:57:59Z</time>
      </trkpt>
      <trkpt lat="43.0852" lon="-0.04025">
        <ele>468.78</ele>
        <time>2013-11-09T13:58:13Z</time>
      </trkpt>
      <trkpt lat="43.0851" lon="-0.04031">
        <ele>466.38</ele>
        <time>2013-11-09T13:58:27Z</time>
      </trkpt>
      <trkpt lat="43.08504" lon="-0.04037">
        <ele>464.45</ele>
        <time>2013-11-09T13:58:38Z</time>
      </trkpt>
      <trkpt lat="43.08495" lon="-0.04051">
        <ele>462.05</ele>
        <time>2013-11-09T13:58:55Z</time>
      </trkpt>
      <trkpt lat="43.08488" lon="-0.04052">
        <ele>458.69</ele>
        <time>2013-11-09T13:59:12Z</time>
      </trkpt>
      <trkpt lat="43.08483" lon="-0.04057">
        <ele>456.28</ele>
        <time>2013-11-09T13:59:26Z</time>
      </trkpt>
      <trkpt lat="43.0847" lon="-0.04067">
        <ele>453.4</ele>
        <time>2013-11-09T13:59:42Z</time>
      </trkpt>
      <trkpt lat="43.08461" lon="-0.04075">
        <ele>450.52</ele>
        <time>2013-11-09T13:59:57Z</time>
      </trkpt>
      <trkpt lat="43.08456" lon="-0.04089">
        <ele>448.59</ele>
        <time>2013-11-09T14:00:10Z</time>
      </trkpt>
      <trkpt lat="43.08446" lon="-0.04104">
        <ele>445.71</ele>
        <time>2013-11-09T14:00:25Z</time>
      </trkpt>
      <trkpt lat="43.08437" lon="-0.04108">
        <ele>442.82</ele>
        <time>2013-11-09T14:00:39Z</time>
      </trkpt>
      <trkpt lat="43.08428" lon="-0.04117">
        <ele>439.46</ele>
        <time>2013-11-09T14:00:56Z</time>
      </trkpt>
      <trkpt lat="43.08407" lon="-0.04132">
        <ele>437.06</ele>
        <time>2013-11-09T14:01:14Z</time>
      </trkpt>
      <trkpt lat="43.08399" lon="-0.04137">
        <ele>435.61</ele>
        <time>2013-11-09T14:01:28Z</time>
      </trkpt>
      <trkpt lat="43.08394" lon="-0.04151">
        <ele>435.61</ele>
        <time>2013-11-09T14:01:41Z</time>
      </trkpt>
      <trkpt lat="43.08394" lon="-0.04151">
        <ele>435.61</ele>
        <time>2013-11-09T14:02:01Z</time>
      </trkpt>
      <trkpt lat="43.08394" lon="-0.04151">
        <ele>435.61</ele>
        <time>2013-11-09T14:02:23Z</time>
      </trkpt>
      <trkpt lat="43.08393" lon="-0.04155">
        <ele>435.13</ele>
        <time>2013-11-09T14:02:40Z</time>
      </trkpt>
      <trkpt lat="43.08386" lon="-0.04172">
        <ele>434.17</ele>
        <time>2013-11-09T14:02:54Z</time>
      </trkpt>
      <trkpt lat="43.08382" lon="-0.04196">
        <ele>432.73</ele>
        <time>2013-11-09T14:03:11Z</time>
      </trkpt>
      <trkpt lat="43.0838" lon="-0.04199">
        <ele>432.25</ele>
        <time>2013-11-09T14:03:14Z</time>
      </trkpt>
      <trkpt lat="43.08376" lon="-0.04215">
        <ele>430.81</ele>
        <time>2013-11-09T14:03:28Z</time>
      </trkpt>
      <trkpt lat="43.08372" lon="-0.04237">
        <ele>430.33</ele>
        <time>2013-11-09T14:03:42Z</time>
      </trkpt>
      <trkpt lat="43.08371" lon="-0.04244">
        <ele>429.85</ele>
        <time>2013-11-09T14:03:46Z</time>
      </trkpt>
      <trkpt lat="43.0837" lon="-0.04257">
        <ele>429.37</ele>
        <time>2013-11-09T14:03:57Z</time>
      </trkpt>
      <trkpt lat="43.08369" lon="-0.0428">
        <ele>427.92</ele>
        <time>2013-11-09T14:04:13Z</time>
      </trkpt>
      <trkpt lat="43.08367" lon="-0.043">
        <ele>425.04</ele>
        <time>2013-11-09T14:04:28Z</time>
      </trkpt>
      <trkpt lat="43.08366" lon="-0.04322">
        <ele>423.12</ele>
        <time>2013-11-09T14:04:41Z</time>
      </trkpt>
      <trkpt lat="43.08366" lon="-0.04343">
        <ele>420.71</ele>
        <time>2013-11-09T14:04:55Z</time>
      </trkpt>
      <trkpt lat="43.08365" lon="-0.04362">
        <ele>418.31</ele>
        <time>2013-11-09T14:05:08Z</time>
      </trkpt>
      <trkpt lat="43.08366" lon="-0.0438">
        <ele>416.39</ele>
        <time>2013-11-09T14:05:21Z</time>
      </trkpt>
      <trkpt lat="43.08364" lon="-0.04395">
        <ele>414.95</ele>
        <time>2013-11-09T14:05:36Z</time>
      </trkpt>
      <trkpt lat="43.08364" lon="-0.04396">
        <ele>414.95</ele>
        <time>2013-11-09T14:05:37Z</time>
      </trkpt>
      <trkpt lat="43.08347" lon="-0.04407">
        <ele>413.98</ele>
        <time>2013-11-09T14:05:51Z</time>
      </trkpt>
      <trkpt lat="43.08351" lon="-0.04422">
        <ele>413.98</ele>
        <time>2013-11-09T14:06:05Z</time>
      </trkpt>
      <trkpt lat="43.08371" lon="-0.04435">
        <ele>413.5</ele>
        <time>2013-11-09T14:06:21Z</time>
      </trkpt>
      <trkpt lat="43.0838" lon="-0.04441">
        <ele>413.5</ele>
        <time>2013-11-09T14:06:29Z</time>
      </trkpt>
      <trkpt lat="43.08385" lon="-0.04443">
        <ele>413.5</ele>
        <time>2013-11-09T14:06:41Z</time>
      </trkpt>
      <trkpt lat="43.08384" lon="-0.04452">
        <ele>413.5</ele>
        <time>2013-11-09T14:06:47Z</time>
      </trkpt>
      <trkpt lat="43.08388" lon="-0.0446">
        <ele>413.02</ele>
        <time>2013-11-09T14:06:58Z</time>
      </trkpt>
      <trkpt lat="43.08391" lon="-0.04466">
        <ele>413.02</ele>
        <time>2013-11-09T14:07:08Z</time>
      </trkpt>
      <trkpt lat="43.08399" lon="-0.04481">
        <ele>412.54</ele>
        <time>2013-11-09T14:07:22Z</time>
      </trkpt>
      <trkpt lat="43.08401" lon="-0.04486">
        <ele>412.06</ele>
        <time>2013-11-09T14:07:27Z</time>
      </trkpt>
      <trkpt lat="43.08408" lon="-0.04501">
        <ele>410.14</ele>
        <time>2013-11-09T14:07:41Z</time>
      </trkpt>
      <trkpt lat="43.08415" lon="-0.0452">
        <ele>407.74</ele>
        <time>2013-11-09T14:07:54Z</time>
      </trkpt>
      <trkpt lat="43.08418" lon="-0.04535">
        <ele>405.81</ele>
        <time>2013-11-09T14:08:07Z</time>
      </trkpt>
      <trkpt lat="43.08423" lon="-0.04542">
        <ele>404.85</ele>
        <time>2013-11-09T14:08:12Z</time>
      </trkpt>
      <trkpt lat="43.08427" lon="-0.04528">
        <ele>404.37</ele>
        <time>2013-11-09T14:08:29Z</time>
      </trkpt>
      <trkpt lat="43.08427" lon="-0.04528">
        <ele>403.89</ele>
        <time>2013-11-09T14:08:47Z</time>
      </trkpt>
      <trkpt lat="43.08428" lon="-0.04527">
        <ele>404.37</ele>
        <time>2013-11-09T14:08:59Z</time>
      </trkpt>
      <trkpt lat="43.08427" lon="-0.04528">
        <ele>404.37</ele>
        <time>2013-11-09T14:09:11Z</time>
      </trkpt>
      <trkpt lat="43.08428" lon="-0.04531">
        <ele>403.89</ele>
        <time>2013-11-09T14:09:23Z</time>
      </trkpt>
      <trkpt lat="43.08429" lon="-0.0453">
        <ele>403.89</ele>
        <time>2013-11-09T14:09:38Z</time>
      </trkpt>
      <trkpt lat="43.08429" lon="-0.0453">
        <ele>403.89</ele>
        <time>2013-11-09T14:09:55Z</time>
      </trkpt>
      <trkpt lat="43.08429" lon="-0.0453">
        <ele>403.41</ele>
        <time>2013-11-09T14:10:09Z</time>
      </trkpt>
      <trkpt lat="43.08429" lon="-0.0453">
        <ele>404.37</ele>
        <time>2013-11-09T14:10:20Z</time>
      </trkpt>
      <trkpt lat="43.0843" lon="-0.04529">
        <ele>412.54</ele>
        <time>2013-11-09T14:10:25Z</time>
      </trkpt>
      <trkpt lat="43.0843" lon="-0.04529">
        <ele>404.37</ele>
        <time>2013-11-09T14:10:26Z</time>
      </trkpt>
      <trkpt lat="43.0843" lon="-0.04529">
        <ele>405.81</ele>
        <time>2013-11-09T14:10:29Z</time>
      </trkpt>
      <trkpt lat="43.0843" lon="-0.04529">
        <ele>404.37</ele>
        <time>2013-11-09T14:10:32Z</time>
      </trkpt>
      <trkpt lat="43.0843" lon="-0.04529">
        <ele>411.1</ele>
        <time>2013-11-09T14:10:33Z</time>
      </trkpt>
      <trkpt lat="43.0843" lon="-0.04529">
        <ele>404.85</ele>
        <time>2013-11-09T14:10:34Z</time>
      </trkpt>
      <trkpt lat="43.0843" lon="-0.04529">
        <ele>399.08</ele>
        <time>2013-11-09T14:10:36Z</time>
      </trkpt>
      <trkpt lat="43.0843" lon="-0.04529">
        <ele>405.33</ele>
        <time>2013-11-09T14:10:37Z</time>
      </trkpt>
      <trkpt lat="43.0843" lon="-0.04529">
        <ele>393.8</ele>
        <time>2013-11-09T14:10:42Z</time>
      </trkpt>
      <trkpt lat="43.0843" lon="-0.04529">
        <ele>397.16</ele>
        <time>2013-11-09T14:10:43Z</time>
      </trkpt>
      <trkpt lat="43.0843" lon="-0.04529">
        <ele>405.33</ele>
        <time>2013-11-09T14:10:44Z</time>
      </trkpt>
      <trkpt lat="43.0843" lon="-0.04529">
        <ele>413.98</ele>
        <time>2013-11-09T14:10:45Z</time>
      </trkpt>
      <trkpt lat="43.0843" lon="-0.04529">
        <ele>414.47</ele>
        <time>2013-11-09T14:10:46Z</time>
      </trkpt>
      <trkpt lat="43.0843" lon="-0.04529">
        <ele>404.37</ele>
        <time>2013-11-09T14:10:47Z</time>
      </trkpt>
      <trkpt lat="43.0843" lon="-0.04529">
        <ele>405.81</ele>
        <time>2013-11-09T14:10:48Z</time>
      </trkpt>
      <trkpt lat="43.0843" lon="-0.04529">
        <ele>401.01</ele>
        <time>2013-11-09T14:10:49Z</time>
      </trkpt>
      <trkpt lat="43.0843" lon="-0.04529">
        <ele>404.37</ele>
        <time>2013-11-09T14:10:50Z</time>
      </trkpt>
      <trkpt lat="43.0843" lon="-0.04529">
        <ele>404.47</ele>
        <time>2013-11-09T14:10:51Z</time>
      </trkpt>
      <trkpt lat="43.0843" lon="-0.04529">
        <ele>405.81</ele>
        <time>2013-11-09T14:10:52Z</time>
      </trkpt>
      <trkpt lat="43.0843" lon="-0.04529">
        <ele>405.81</ele>
        <time>2013-11-09T14:10:53Z</time>
      </trkpt>
    </trkseg>
  </trk>
</gpx>